AFR722 LFPG-FZAA
Flight info
| Callsign | AFR722 |
|---|---|
| Flight time | 8h 40m |
| Altitude | 35000 |
| Route | LGL UT176 TERPO UN872 ERIGA UZ218 FUJTI/N0475F390 DCT BAKUP DCT BATAX DCT OSLAD UR724 ADM UR977 BULIS UR981 SENOX/N0482F410 UR981 BAKAB/N0484F400 UA603 LIPET/N0483F410 DCT BATIA DCT TENTU DCT ARDEX DCT BTA DCT MOVOD UG856 BZ DCT KSA |
| Aircraft | A359/H-SDE2E3GHIJ3J4J5LM1ORWXY/LB1D1 |
Departure
| Time | 2026-04-23 12:03 |
|---|---|
| Airport | Charles de Gaulle International Airport (LFPG) |
Arrival
| Time | 2026-04-23 20:44 |
|---|---|
| Airport | Ndjili International Airport (FZAA) |
| Time | Latitude | Longitude | Altitude | Speed | Heading |
|---|---|---|---|---|---|
| 2026-04-23 11:40 | 49.00777 | 2.59146 | 341 ft | 0 kts | 265° |
| 2026-04-23 11:52 | 49.00777 | 2.59156 | 341 ft | 2 kts | 265° |
| 2026-04-23 11:52 | 49.00779 | 2.59178 | 341 ft | 2 kts | 265° |
| 2026-04-23 11:52 | 49.00780 | 2.59201 | 341 ft | 2 kts | 266° |
| 2026-04-23 11:52 | 49.00779 | 2.59224 | 341 ft | 2 kts | 284° |
| 2026-04-23 11:53 | 49.00774 | 2.59245 | 341 ft | 2 kts | 300° |
| 2026-04-23 11:53 | 49.00766 | 2.59263 | 341 ft | 2 kts | 315° |
| 2026-04-23 11:53 | 49.00755 | 2.59277 | 341 ft | 2 kts | 330° |
| 2026-04-23 11:53 | 49.00741 | 2.59287 | 341 ft | 2 kts | 345° |
| 2026-04-23 11:54 | 49.00731 | 2.59290 | 341 ft | 0 kts | 356° |
| 2026-04-23 11:54 | 49.00729 | 2.59290 | 341 ft | 0 kts | 356° |
| 2026-04-23 11:55 | 49.00740 | 2.59288 | 341 ft | 3 kts | 356° |
| 2026-04-23 11:55 | 49.00781 | 2.59284 | 341 ft | 8 kts | 356° |
| 2026-04-23 11:56 | 49.00850 | 2.59290 | 341 ft | 11 kts | 24° |
| 2026-04-23 11:56 | 49.00847 | 2.59399 | 340 ft | 15 kts | 151° |
| 2026-04-23 11:56 | 49.00732 | 2.59424 | 341 ft | 18 kts | 177° |
| 2026-04-23 11:56 | 49.00590 | 2.59439 | 341 ft | 22 kts | 175° |
| 2026-04-23 11:57 | 49.00428 | 2.59461 | 340 ft | 23 kts | 176° |
| 2026-04-23 11:57 | 49.00295 | 2.59476 | 337 ft | 15 kts | 175° |
| 2026-04-23 11:57 | 49.00173 | 2.59492 | 335 ft | 19 kts | 175° |
| 2026-04-23 11:57 | 49.00079 | 2.59454 | 328 ft | 15 kts | 247° |
| 2026-04-23 11:58 | 49.00062 | 2.59280 | 327 ft | 18 kts | 266° |
| 2026-04-23 11:58 | 49.00052 | 2.59086 | 328 ft | 19 kts | 266° |
| 2026-04-23 11:58 | 49.00041 | 2.58875 | 327 ft | 21 kts | 266° |
| 2026-04-23 11:58 | 49.00028 | 2.58644 | 330 ft | 21 kts | 265° |
| 2026-04-23 11:59 | 49.00016 | 2.58413 | 334 ft | 21 kts | 266° |
| 2026-04-23 11:59 | 49.00004 | 2.58184 | 338 ft | 21 kts | 265° |
| 2026-04-23 11:59 | 48.99992 | 2.57960 | 342 ft | 21 kts | 265° |
| 2026-04-23 11:59 | 48.99979 | 2.57737 | 346 ft | 20 kts | 265° |
| 2026-04-23 12:00 | 48.99968 | 2.57526 | 353 ft | 18 kts | 266° |
| 2026-04-23 12:00 | 48.99958 | 2.57327 | 356 ft | 18 kts | 266° |
| 2026-04-23 12:00 | 48.99947 | 2.57121 | 356 ft | 20 kts | 266° |
| 2026-04-23 12:00 | 48.99934 | 2.56888 | 354 ft | 23 kts | 265° |
| 2026-04-23 12:01 | 48.99920 | 2.56615 | 348 ft | 28 kts | 266° |
| 2026-04-23 12:01 | 48.99906 | 2.56346 | 344 ft | 25 kts | 265° |
| 2026-04-23 12:01 | 48.99891 | 2.56074 | 339 ft | 26 kts | 266° |
| 2026-04-23 12:01 | 48.99894 | 2.55850 | 335 ft | 16 kts | 246° |
| 2026-04-23 12:02 | 48.99782 | 2.55804 | 335 ft | 18 kts | 178° |
| 2026-04-23 12:02 | 48.99680 | 2.55814 | 337 ft | 13 kts | 175° |
| 2026-04-23 12:02 | 48.99618 | 2.55837 | 338 ft | 7 kts | 139° |
| 2026-04-23 12:02 | 48.99604 | 2.55923 | 338 ft | 9 kts | 86° |
| 2026-04-23 12:03 | 48.99627 | 2.56341 | 341 ft | 74 kts | 86° |
| 2026-04-23 12:03 | 48.99685 | 2.57451 | 349 ft | 135 kts | 85° |
| 2026-04-23 12:03 | 48.99772 | 2.59062 | 605 ft | 163 kts | 85° |
| 2026-04-23 12:03 | 48.99862 | 2.60753 | 1391 ft | 159 kts | 84° |
| 2026-04-23 12:04 | 48.99947 | 2.62371 | 2161 ft | 156 kts | 84° |
| 2026-04-23 12:04 | 49.00041 | 2.64047 | 2675 ft | 163 kts | 85° |
| 2026-04-23 12:04 | 49.00137 | 2.65839 | 3002 ft | 177 kts | 85° |
| 2026-04-23 12:04 | 49.00239 | 2.67783 | 3332 ft | 192 kts | 85° |
| 2026-04-23 12:05 | 49.00350 | 2.69883 | 3649 ft | 209 kts | 85° |
| 2026-04-23 12:05 | 49.00468 | 2.72159 | 4030 ft | 226 kts | 85° |
| 2026-04-23 12:05 | 49.00594 | 2.74616 | 4468 ft | 242 kts | 85° |
| 2026-04-23 12:05 | 49.00726 | 2.77191 | 5108 ft | 249 kts | 87° |
| 2026-04-23 12:06 | 49.00741 | 2.79818 | 5886 ft | 252 kts | 93° |
| 2026-04-23 12:06 | 49.00559 | 2.82478 | 6680 ft | 254 kts | 99° |
| 2026-04-23 12:06 | 48.99892 | 2.87797 | 8168 ft | 262 kts | 100° |
| 2026-04-23 12:07 | 48.99541 | 2.90499 | 8890 ft | 267 kts | 100° |
| 2026-04-23 12:07 | 48.99178 | 2.93296 | 9624 ft | 271 kts | 100° |
| 2026-04-23 12:07 | 48.98808 | 2.96088 | 10347 ft | 275 kts | 103° |
| 2026-04-23 12:07 | 48.98018 | 2.98759 | 10926 ft | 287 kts | 124° |
| 2026-04-23 12:08 | 48.96524 | 3.00881 | 11359 ft | 306 kts | 147° |
| 2026-04-23 12:08 | 48.94477 | 3.02010 | 11754 ft | 326 kts | 170° |
| 2026-04-23 12:08 | 48.92169 | 3.01730 | 12132 ft | 347 kts | 196° |
| 2026-04-23 12:08 | 48.90072 | 2.99855 | 12567 ft | 364 kts | 223° |
| 2026-04-23 12:09 | 48.88675 | 2.96628 | 13221 ft | 370 kts | 249° |
| 2026-04-23 12:09 | 48.88002 | 2.92893 | 13951 ft | 372 kts | 257° |
| 2026-04-23 12:09 | 48.87481 | 2.89040 | 14556 ft | 377 kts | 258° |
| 2026-04-23 12:09 | 48.86964 | 2.85143 | 15190 ft | 381 kts | 258° |
| 2026-04-23 12:10 | 48.86416 | 2.81183 | 15827 ft | 384 kts | 257° |
| 2026-04-23 12:10 | 48.85843 | 2.77216 | 16467 ft | 387 kts | 256° |
| 2026-04-23 12:10 | 48.85247 | 2.73204 | 17090 ft | 391 kts | 256° |
| 2026-04-23 12:10 | 48.84652 | 2.69245 | 17695 ft | 394 kts | 256° |
| 2026-04-23 12:11 | 48.84034 | 2.65177 | 18285 ft | 397 kts | 256° |
| 2026-04-23 12:11 | 48.83408 | 2.61091 | 18881 ft | 401 kts | 256° |
| 2026-04-23 12:11 | 48.82776 | 2.56958 | 19457 ft | 404 kts | 255° |
| 2026-04-23 12:11 | 48.82138 | 2.52812 | 19998 ft | 409 kts | 255° |
| 2026-04-23 12:12 | 48.81489 | 2.48597 | 20550 ft | 412 kts | 255° |
| 2026-04-23 12:12 | 48.80841 | 2.44369 | 21104 ft | 416 kts | 256° |
| 2026-04-23 12:12 | 48.80344 | 2.40050 | 21648 ft | 421 kts | 261° |
| 2026-04-23 12:12 | 48.80086 | 2.35618 | 22172 ft | 426 kts | 266° |
| 2026-04-23 12:13 | 48.80042 | 2.31112 | 22670 ft | 431 kts | 268° |
| 2026-04-23 12:13 | 48.80056 | 2.26553 | 23175 ft | 434 kts | 268° |
| 2026-04-23 12:13 | 48.80078 | 2.22003 | 23671 ft | 438 kts | 268° |
| 2026-04-23 12:13 | 48.80092 | 2.17378 | 24157 ft | 441 kts | 268° |
| 2026-04-23 12:14 | 48.80098 | 2.12734 | 24632 ft | 444 kts | 268° |
| 2026-04-23 12:14 | 48.80100 | 2.08203 | 25075 ft | 446 kts | 268° |
| 2026-04-23 12:14 | 48.80099 | 2.03602 | 25502 ft | 449 kts | 269° |
| 2026-04-23 12:14 | 48.80096 | 1.98875 | 25933 ft | 451 kts | 269° |
| 2026-04-23 12:15 | 48.80091 | 1.94116 | 26357 ft | 453 kts | 269° |
| 2026-04-23 12:15 | 48.80082 | 1.89382 | 26740 ft | 455 kts | 269° |
| 2026-04-23 12:15 | 48.80067 | 1.84611 | 27079 ft | 458 kts | 270° |
| 2026-04-23 12:15 | 48.80056 | 1.79751 | 27418 ft | 461 kts | 270° |
| 2026-04-23 12:16 | 48.80044 | 1.74873 | 27761 ft | 463 kts | 270° |
| 2026-04-23 12:16 | 48.80028 | 1.70036 | 28103 ft | 465 kts | 271° |
| 2026-04-23 12:16 | 48.80005 | 1.65130 | 28459 ft | 466 kts | 272° |
| 2026-04-23 12:16 | 48.79988 | 1.60275 | 28797 ft | 468 kts | 272° |
| 2026-04-23 12:17 | 48.79965 | 1.55303 | 29111 ft | 470 kts | 272° |
| 2026-04-23 12:17 | 48.79939 | 1.50410 | 29493 ft | 469 kts | 273° |
| 2026-04-23 12:17 | 48.79912 | 1.45437 | 29845 ft | 470 kts | 273° |
| 2026-04-23 12:17 | 48.79885 | 1.40514 | 30181 ft | 470 kts | 274° |
| 2026-04-23 12:18 | 48.79854 | 1.35587 | 30538 ft | 469 kts | 274° |
| 2026-04-23 12:18 | 48.79823 | 1.30683 | 30928 ft | 467 kts | 273° |
| 2026-04-23 12:18 | 48.79791 | 1.25804 | 31258 ft | 466 kts | 273° |
| 2026-04-23 12:18 | 48.79755 | 1.20901 | 31589 ft | 465 kts | 273° |
| 2026-04-23 12:19 | 48.79719 | 1.16035 | 31869 ft | 465 kts | 273° |
| 2026-04-23 12:19 | 48.79681 | 1.11158 | 32123 ft | 466 kts | 273° |
| 2026-04-23 12:19 | 48.79639 | 1.06273 | 32359 ft | 466 kts | 273° |
| 2026-04-23 12:19 | 48.79594 | 1.01378 | 32585 ft | 467 kts | 273° |
| 2026-04-23 12:20 | 48.79548 | 0.96460 | 32840 ft | 467 kts | 273° |
| 2026-04-23 12:20 | 48.79499 | 0.91533 | 33074 ft | 468 kts | 274° |
| 2026-04-23 12:20 | 48.79449 | 0.86615 | 33375 ft | 466 kts | 273° |
| 2026-04-23 12:20 | 48.79398 | 0.81764 | 33659 ft | 465 kts | 273° |
| 2026-04-23 12:21 | 48.79340 | 0.76839 | 33904 ft | 465 kts | 273° |
| 2026-04-23 12:21 | 48.79283 | 0.71951 | 34113 ft | 466 kts | 273° |
| 2026-04-23 12:21 | 48.79156 | 0.67054 | 34287 ft | 469 kts | 269° |
| 2026-04-23 12:21 | 48.78713 | 0.62175 | 34466 ft | 473 kts | 263° |
| 2026-04-23 12:22 | 48.77928 | 0.57339 | 34641 ft | 477 kts | 257° |
| 2026-04-23 12:22 | 48.76809 | 0.52628 | 34802 ft | 481 kts | 251° |
| 2026-04-23 12:22 | 48.75340 | 0.48036 | 34962 ft | 485 kts | 245° |
| 2026-04-23 12:22 | 48.73577 | 0.43755 | 35120 ft | 490 kts | 239° |
| 2026-04-23 12:23 | 48.71485 | 0.39673 | 35258 ft | 493 kts | 235° |
| 2026-04-23 12:23 | 48.69281 | 0.35720 | 35254 ft | 494 kts | 234° |
| 2026-04-23 12:23 | 48.64808 | 0.27815 | 35263 ft | 493 kts | 234° |
| 2026-04-23 12:24 | 48.60385 | 0.19973 | 35258 ft | 492 kts | 234° |
| 2026-04-23 12:24 | 48.55954 | 0.12122 | 35261 ft | 491 kts | 234° |
| 2026-04-23 12:25 | 48.51561 | 0.04320 | 35253 ft | 491 kts | 234° |
| 2026-04-23 12:25 | 48.47138 | -0.03524 | 35250 ft | 491 kts | 234° |
| 2026-04-23 12:26 | 48.42752 | -0.11277 | 35248 ft | 490 kts | 234° |
| 2026-04-23 12:26 | 48.38341 | -0.19052 | 35242 ft | 489 kts | 234° |
| 2026-04-23 12:27 | 48.33940 | -0.26765 | 35240 ft | 488 kts | 234° |
| 2026-04-23 12:27 | 48.29487 | -0.34454 | 35242 ft | 488 kts | 234° |
| 2026-04-23 12:28 | 48.25058 | -0.42066 | 35407 ft | 487 kts | 234° |
| 2026-04-23 12:28 | 48.22845 | -0.45863 | 35284 ft | 486 kts | 234° |
| 2026-04-23 12:28 | 48.20627 | -0.49667 | 35245 ft | 485 kts | 234° |
| 2026-04-23 12:29 | 48.16185 | -0.57273 | 35236 ft | 485 kts | 234° |
| 2026-04-23 12:29 | 48.11761 | -0.64823 | 35229 ft | 485 kts | 233° |
| 2026-04-23 12:30 | 48.07333 | -0.72383 | 35227 ft | 485 kts | 233° |
| 2026-04-23 12:30 | 48.02897 | -0.79933 | 35226 ft | 484 kts | 233° |
| 2026-04-23 12:31 | 47.98458 | -0.87454 | 35226 ft | 483 kts | 233° |
| 2026-04-23 12:31 | 47.94038 | -0.94917 | 35222 ft | 482 kts | 232° |
| 2026-04-23 12:32 | 47.89615 | -1.02362 | 35208 ft | 482 kts | 232° |
| 2026-04-23 12:32 | 47.85144 | -1.09813 | 35198 ft | 482 kts | 232° |
| 2026-04-23 12:33 | 47.80704 | -1.17210 | 35197 ft | 482 kts | 232° |
| 2026-04-23 12:33 | 47.76241 | -1.24653 | 35190 ft | 481 kts | 232° |
| 2026-04-23 12:34 | 47.71808 | -1.32035 | 35192 ft | 481 kts | 232° |
| 2026-04-23 12:34 | 47.67365 | -1.39415 | 35186 ft | 480 kts | 232° |
| 2026-04-23 12:35 | 47.62947 | -1.46734 | 35177 ft | 480 kts | 232° |
| 2026-04-23 12:35 | 47.58489 | -1.54093 | 35176 ft | 480 kts | 232° |
| 2026-04-23 12:36 | 47.54060 | -1.61390 | 35165 ft | 479 kts | 232° |
| 2026-04-23 12:36 | 47.49622 | -1.68700 | 35169 ft | 479 kts | 231° |
| 2026-04-23 12:37 | 47.45184 | -1.76010 | 35160 ft | 479 kts | 231° |
| 2026-04-23 12:37 | 47.40737 | -1.83283 | 35152 ft | 479 kts | 230° |
| 2026-04-23 12:38 | 47.35953 | -1.90189 | 35152 ft | 481 kts | 224° |
| 2026-04-23 12:38 | 47.30757 | -1.96249 | 35145 ft | 482 kts | 218° |
| 2026-04-23 12:39 | 47.25105 | -2.01569 | 35147 ft | 484 kts | 214° |
| 2026-04-23 12:39 | 47.19330 | -2.06714 | 35139 ft | 484 kts | 214° |
| 2026-04-23 12:40 | 47.13606 | -2.11812 | 35129 ft | 484 kts | 214° |
| 2026-04-23 12:40 | 47.07855 | -2.16925 | 35124 ft | 483 kts | 214° |
| 2026-04-23 12:41 | 47.02141 | -2.21994 | 35130 ft | 482 kts | 213° |
| 2026-04-23 12:41 | 46.96434 | -2.27043 | 35128 ft | 481 kts | 213° |
| 2026-04-23 12:42 | 46.90704 | -2.32098 | 35128 ft | 481 kts | 214° |
| 2026-04-23 12:42 | 46.84962 | -2.37133 | 35126 ft | 481 kts | 213° |
| 2026-04-23 12:43 | 46.79272 | -2.42108 | 35122 ft | 481 kts | 213° |
| 2026-04-23 12:43 | 46.73558 | -2.47105 | 35120 ft | 480 kts | 213° |
| 2026-04-23 12:44 | 46.67840 | -2.52099 | 35116 ft | 479 kts | 213° |
| 2026-04-23 12:44 | 46.62126 | -2.57080 | 35117 ft | 479 kts | 213° |
| 2026-04-23 12:45 | 46.56458 | -2.62011 | 35112 ft | 478 kts | 213° |
| 2026-04-23 12:45 | 46.50747 | -2.66971 | 35112 ft | 478 kts | 213° |
| 2026-04-23 12:46 | 46.45079 | -2.71907 | 35107 ft | 477 kts | 213° |
| 2026-04-23 12:46 | 46.39417 | -2.76807 | 35108 ft | 477 kts | 213° |
| 2026-04-23 12:47 | 46.33718 | -2.81716 | 35104 ft | 477 kts | 213° |
| 2026-04-23 12:47 | 46.28035 | -2.86596 | 35101 ft | 477 kts | 213° |
| 2026-04-23 12:48 | 46.22362 | -2.91504 | 35101 ft | 476 kts | 213° |
| 2026-04-23 12:48 | 46.16729 | -2.96418 | 35101 ft | 475 kts | 213° |
| 2026-04-23 12:49 | 46.11071 | -3.01339 | 35099 ft | 475 kts | 213° |
| 2026-04-23 12:49 | 46.05440 | -3.06220 | 35099 ft | 474 kts | 213° |
| 2026-04-23 12:50 | 45.99792 | -3.11102 | 35093 ft | 474 kts | 213° |
| 2026-04-23 12:50 | 45.94145 | -3.15971 | 35092 ft | 474 kts | 213° |
| 2026-04-23 12:51 | 45.88511 | -3.20816 | 35089 ft | 474 kts | 213° |
| 2026-04-23 12:51 | 45.82864 | -3.25635 | 35084 ft | 473 kts | 213° |
| 2026-04-23 12:52 | 45.77236 | -3.30436 | 35078 ft | 472 kts | 213° |
| 2026-04-23 12:52 | 45.71593 | -3.35250 | 35072 ft | 471 kts | 213° |
| 2026-04-23 12:53 | 45.66003 | -3.40010 | 35070 ft | 470 kts | 213° |
| 2026-04-23 12:53 | 45.60407 | -3.44766 | 35067 ft | 470 kts | 213° |
| 2026-04-23 12:54 | 45.54805 | -3.49518 | 35065 ft | 470 kts | 212° |
| 2026-04-23 12:54 | 45.49198 | -3.54261 | 35063 ft | 470 kts | 213° |
| 2026-04-23 12:55 | 45.43564 | -3.59017 | 35059 ft | 469 kts | 212° |
| 2026-04-23 12:55 | 45.37980 | -3.63720 | 35053 ft | 469 kts | 212° |
| 2026-04-23 12:56 | 45.32369 | -3.68451 | 35049 ft | 469 kts | 212° |
| 2026-04-23 12:56 | 45.26765 | -3.73176 | 35051 ft | 468 kts | 212° |
| 2026-04-23 12:57 | 45.21180 | -3.77858 | 35047 ft | 467 kts | 211° |
| 2026-04-23 12:57 | 45.15616 | -3.82503 | 35040 ft | 466 kts | 212° |
| 2026-04-23 12:58 | 45.10049 | -3.87138 | 35040 ft | 466 kts | 211° |
| 2026-04-23 12:58 | 45.04485 | -3.91760 | 35036 ft | 466 kts | 211° |
| 2026-04-23 12:59 | 44.98903 | -3.96386 | 35035 ft | 465 kts | 211° |
| 2026-04-23 12:59 | 44.93322 | -4.00998 | 35030 ft | 464 kts | 211° |
| 2026-04-23 13:00 | 44.87751 | -4.05588 | 35030 ft | 464 kts | 211° |
| 2026-04-23 13:00 | 44.82185 | -4.10145 | 35026 ft | 464 kts | 211° |
| 2026-04-23 13:01 | 44.76645 | -4.14681 | 35024 ft | 463 kts | 211° |
| 2026-04-23 13:01 | 44.71093 | -4.19228 | 35023 ft | 463 kts | 211° |
| 2026-04-23 13:02 | 44.65564 | -4.23748 | 35018 ft | 462 kts | 211° |
| 2026-04-23 13:02 | 44.60023 | -4.28270 | 35019 ft | 462 kts | 211° |
| 2026-04-23 13:03 | 44.54473 | -4.32791 | 35017 ft | 462 kts | 211° |
| 2026-04-23 13:03 | 44.48951 | -4.37279 | 35010 ft | 461 kts | 211° |
| 2026-04-23 13:04 | 44.43399 | -4.41781 | 35010 ft | 461 kts | 211° |
| 2026-04-23 13:04 | 44.37910 | -4.46300 | 35006 ft | 460 kts | 212° |
| 2026-04-23 13:05 | 44.32451 | -4.50935 | 35004 ft | 460 kts | 212° |
| 2026-04-23 13:05 | 44.26966 | -4.55585 | 35004 ft | 460 kts | 212° |
| 2026-04-23 13:06 | 44.18806 | -4.62470 | 35000 ft | 459 kts | 212° |
| 2026-04-23 13:07 | 44.13348 | -4.67070 | 34998 ft | 458 kts | 212° |
| 2026-04-23 13:07 | 44.07939 | -4.71637 | 34997 ft | 458 kts | 212° |
| 2026-04-23 13:08 | 44.02508 | -4.76201 | 34997 ft | 457 kts | 211° |
| 2026-04-23 13:08 | 43.97067 | -4.80751 | 34990 ft | 456 kts | 211° |
| 2026-04-23 13:09 | 43.91626 | -4.85289 | 34989 ft | 457 kts | 211° |
| 2026-04-23 13:09 | 43.86194 | -4.89794 | 34990 ft | 457 kts | 211° |
| 2026-04-23 13:10 | 43.80722 | -4.94313 | 34986 ft | 457 kts | 211° |
| 2026-04-23 13:10 | 43.75299 | -4.98794 | 34987 ft | 457 kts | 211° |
| 2026-04-23 13:11 | 43.69836 | -5.03306 | 34987 ft | 456 kts | 211° |
| 2026-04-23 13:11 | 43.64433 | -5.07760 | 34984 ft | 455 kts | 211° |
| 2026-04-23 13:12 | 43.59005 | -5.12227 | 34983 ft | 455 kts | 211° |
| 2026-04-23 13:12 | 43.53597 | -5.16668 | 34983 ft | 453 kts | 211° |
| 2026-04-23 13:13 | 43.48175 | -5.21109 | 34981 ft | 453 kts | 211° |
| 2026-04-23 13:13 | 43.42768 | -5.25530 | 34993 ft | 452 kts | 211° |
| 2026-04-23 13:14 | 43.37378 | -5.29927 | 35010 ft | 453 kts | 211° |
| 2026-04-23 13:14 | 43.31972 | -5.34329 | 35030 ft | 454 kts | 211° |
| 2026-04-23 13:15 | 43.26565 | -5.38725 | 35044 ft | 453 kts | 211° |
| 2026-04-23 13:15 | 43.21150 | -5.43116 | 35058 ft | 452 kts | 211° |
| 2026-04-23 13:16 | 43.15755 | -5.47481 | 35082 ft | 452 kts | 211° |
| 2026-04-23 13:16 | 43.10352 | -5.51845 | 35102 ft | 452 kts | 211° |
| 2026-04-23 13:17 | 43.04924 | -5.56220 | 35119 ft | 451 kts | 211° |
| 2026-04-23 13:17 | 42.99539 | -5.60550 | 35122 ft | 450 kts | 210° |
| 2026-04-23 13:18 | 42.94163 | -5.64864 | 35120 ft | 449 kts | 210° |
| 2026-04-23 13:18 | 42.88775 | -5.69200 | 35117 ft | 449 kts | 210° |
| 2026-04-23 13:19 | 42.83425 | -5.73474 | 35105 ft | 449 kts | 210° |
| 2026-04-23 13:19 | 42.78023 | -5.77779 | 35098 ft | 449 kts | 210° |
| 2026-04-23 13:20 | 42.72654 | -5.82052 | 35092 ft | 450 kts | 210° |
| 2026-04-23 13:20 | 42.67278 | -5.86320 | 35088 ft | 449 kts | 210° |
| 2026-04-23 13:21 | 42.61889 | -5.90594 | 35082 ft | 448 kts | 210° |
| 2026-04-23 13:21 | 42.56500 | -5.94857 | 35077 ft | 448 kts | 209° |
| 2026-04-23 13:22 | 42.51141 | -5.99088 | 35070 ft | 447 kts | 210° |
| 2026-04-23 13:22 | 42.45790 | -6.03306 | 35063 ft | 446 kts | 209° |
| 2026-04-23 13:23 | 42.40402 | -6.07543 | 35061 ft | 446 kts | 209° |
| 2026-04-23 13:23 | 42.35074 | -6.11727 | 35059 ft | 445 kts | 209° |
| 2026-04-23 13:24 | 42.29703 | -6.15933 | 35061 ft | 445 kts | 209° |
| 2026-04-23 13:24 | 42.24378 | -6.20092 | 35061 ft | 445 kts | 209° |
| 2026-04-23 13:25 | 42.19015 | -6.24277 | 35063 ft | 445 kts | 209° |
| 2026-04-23 13:25 | 42.13678 | -6.28435 | 35057 ft | 444 kts | 209° |
| 2026-04-23 13:26 | 42.08374 | -6.32558 | 35049 ft | 444 kts | 209° |
| 2026-04-23 13:26 | 42.03012 | -6.36718 | 35048 ft | 443 kts | 209° |
| 2026-04-23 13:27 | 41.97716 | -6.40820 | 35045 ft | 443 kts | 209° |
| 2026-04-23 13:27 | 41.92382 | -6.44941 | 35041 ft | 443 kts | 209° |
| 2026-04-23 13:28 | 41.87013 | -6.49075 | 35040 ft | 443 kts | 208° |
| 2026-04-23 13:28 | 41.81698 | -6.53152 | 35038 ft | 442 kts | 209° |
| 2026-04-23 13:29 | 41.76348 | -6.57211 | 35031 ft | 441 kts | 207° |
| 2026-04-23 13:29 | 41.70812 | -6.60699 | 35017 ft | 440 kts | 202° |
| 2026-04-23 13:30 | 41.65070 | -6.63459 | 35013 ft | 440 kts | 197° |
| 2026-04-23 13:30 | 41.59169 | -6.65515 | 35014 ft | 439 kts | 193° |
| 2026-04-23 13:31 | 41.53242 | -6.67454 | 35001 ft | 439 kts | 193° |
| 2026-04-23 13:31 | 41.47336 | -6.69369 | 34994 ft | 439 kts | 193° |
| 2026-04-23 13:32 | 41.41374 | -6.71280 | 34997 ft | 438 kts | 193° |
| 2026-04-23 13:32 | 41.35478 | -6.73161 | 34909 ft | 439 kts | 193° |
| 2026-04-23 13:33 | 41.29507 | -6.75060 | 34983 ft | 439 kts | 193° |
| 2026-04-23 13:33 | 41.23579 | -6.76938 | 34997 ft | 439 kts | 193° |
| 2026-04-23 13:34 | 41.17690 | -6.78800 | 34997 ft | 439 kts | 193° |
| 2026-04-23 13:34 | 41.11756 | -6.80673 | 34990 ft | 438 kts | 193° |
| 2026-04-23 13:35 | 41.05828 | -6.82540 | 34987 ft | 437 kts | 193° |
| 2026-04-23 13:35 | 40.99910 | -6.84400 | 34984 ft | 437 kts | 193° |
| 2026-04-23 13:36 | 40.94025 | -6.86248 | 34991 ft | 437 kts | 193° |
| 2026-04-23 13:36 | 40.88096 | -6.88105 | 34991 ft | 438 kts | 193° |
| 2026-04-23 13:37 | 40.82194 | -6.89942 | 34983 ft | 438 kts | 193° |
| 2026-04-23 13:37 | 40.76251 | -6.91791 | 34983 ft | 437 kts | 193° |
| 2026-04-23 13:38 | 40.70335 | -6.93631 | 34981 ft | 438 kts | 193° |
| 2026-04-23 13:38 | 40.64406 | -6.95476 | 34986 ft | 437 kts | 193° |
| 2026-04-23 13:39 | 40.58502 | -6.97307 | 34988 ft | 438 kts | 193° |
| 2026-04-23 13:39 | 40.52595 | -6.99137 | 34991 ft | 438 kts | 193° |
| 2026-04-23 13:40 | 40.46669 | -7.00970 | 34995 ft | 438 kts | 193° |
| 2026-04-23 13:40 | 40.40757 | -7.02796 | 34993 ft | 438 kts | 193° |
| 2026-04-23 13:41 | 40.34800 | -7.04631 | 34993 ft | 438 kts | 193° |
| 2026-04-23 13:41 | 40.28888 | -7.06449 | 34996 ft | 440 kts | 193° |
| 2026-04-23 13:42 | 40.22933 | -7.08278 | 34993 ft | 440 kts | 193° |
| 2026-04-23 13:42 | 40.16986 | -7.10101 | 34986 ft | 440 kts | 193° |
| 2026-04-23 13:43 | 40.11050 | -7.11918 | 34983 ft | 440 kts | 193° |
| 2026-04-23 13:43 | 40.05067 | -7.13746 | 34961 ft | 440 kts | 193° |
| 2026-04-23 13:44 | 39.99095 | -7.15565 | 34956 ft | 440 kts | 193° |
| 2026-04-23 13:44 | 39.93156 | -7.17371 | 34956 ft | 440 kts | 193° |
| 2026-04-23 13:45 | 39.88205 | -7.18875 | 34955 ft | 440 kts | 193° |
| 2026-04-23 13:45 | 39.81252 | -7.20974 | 34952 ft | 441 kts | 193° |
| 2026-04-23 13:46 | 39.75264 | -7.22782 | 34946 ft | 441 kts | 193° |
| 2026-04-23 13:46 | 39.69311 | -7.24579 | 34953 ft | 441 kts | 193° |
| 2026-04-23 13:47 | 39.63305 | -7.26388 | 34953 ft | 442 kts | 193° |
| 2026-04-23 13:47 | 39.57314 | -7.28191 | 34956 ft | 442 kts | 193° |
| 2026-04-23 13:48 | 39.51351 | -7.29984 | 34958 ft | 442 kts | 193° |
| 2026-04-23 13:48 | 39.45348 | -7.31785 | 34961 ft | 443 kts | 193° |
| 2026-04-23 13:49 | 39.39361 | -7.33579 | 34969 ft | 443 kts | 193° |
| 2026-04-23 13:49 | 39.33354 | -7.35374 | 34975 ft | 443 kts | 193° |
| 2026-04-23 13:50 | 39.27382 | -7.37157 | 34976 ft | 443 kts | 193° |
| 2026-04-23 13:50 | 39.21395 | -7.38939 | 34983 ft | 443 kts | 193° |
| 2026-04-23 13:51 | 39.15383 | -7.40727 | 34976 ft | 443 kts | 193° |
| 2026-04-23 13:51 | 39.09378 | -7.42510 | 34971 ft | 444 kts | 193° |
| 2026-04-23 13:52 | 39.03341 | -7.44300 | 34969 ft | 444 kts | 193° |
| 2026-04-23 13:52 | 38.97333 | -7.46078 | 34967 ft | 444 kts | 193° |
| 2026-04-23 13:53 | 38.91341 | -7.47846 | 34965 ft | 443 kts | 193° |
| 2026-04-23 13:53 | 38.85310 | -7.49621 | 34968 ft | 444 kts | 192° |
| 2026-04-23 13:54 | 38.79248 | -7.51395 | 34962 ft | 443 kts | 192° |
| 2026-04-23 13:54 | 38.73233 | -7.53159 | 34960 ft | 444 kts | 193° |
| 2026-04-23 13:55 | 38.67221 | -7.54921 | 34961 ft | 444 kts | 193° |
| 2026-04-23 13:55 | 38.61222 | -7.56678 | 34958 ft | 444 kts | 192° |
| 2026-04-23 13:56 | 38.55216 | -7.58432 | 34961 ft | 444 kts | 192° |
| 2026-04-23 13:56 | 38.49191 | -7.60189 | 34960 ft | 444 kts | 193° |
| 2026-04-23 13:57 | 38.43176 | -7.61942 | 34961 ft | 445 kts | 193° |
| 2026-04-23 13:57 | 38.37116 | -7.63704 | 34960 ft | 445 kts | 192° |
| 2026-04-23 13:58 | 38.31094 | -7.65455 | 34962 ft | 445 kts | 192° |
| 2026-04-23 13:58 | 38.25076 | -7.67228 | 34966 ft | 444 kts | 192° |
| 2026-04-23 13:59 | 38.19053 | -7.68990 | 34969 ft | 444 kts | 192° |
| 2026-04-23 13:59 | 38.13024 | -7.70738 | 34970 ft | 445 kts | 192° |
| 2026-04-23 14:00 | 38.08025 | -7.72181 | 34970 ft | 444 kts | 192° |
| 2026-04-23 14:00 | 38.00978 | -7.74210 | 34968 ft | 444 kts | 192° |
| 2026-04-23 14:01 | 37.94998 | -7.75930 | 34967 ft | 445 kts | 192° |
| 2026-04-23 14:01 | 37.88936 | -7.77669 | 34967 ft | 446 kts | 192° |
| 2026-04-23 14:02 | 37.82903 | -7.79389 | 34967 ft | 447 kts | 192° |
| 2026-04-23 14:02 | 37.76812 | -7.81124 | 35040 ft | 449 kts | 192° |
| 2026-04-23 14:02 | 37.73768 | -7.81991 | 35258 ft | 449 kts | 192° |
| 2026-04-23 14:03 | 37.70732 | -7.82856 | 35514 ft | 447 kts | 192° |
| 2026-04-23 14:03 | 37.67727 | -7.83711 | 36041 ft | 446 kts | 193° |
| 2026-04-23 14:03 | 37.64706 | -7.84570 | 36320 ft | 445 kts | 193° |
| 2026-04-23 14:03 | 37.61686 | -7.85429 | 36550 ft | 444 kts | 193° |
| 2026-04-23 14:04 | 37.58675 | -7.86286 | 36779 ft | 443 kts | 193° |
| 2026-04-23 14:04 | 37.55690 | -7.87135 | 37007 ft | 443 kts | 193° |
| 2026-04-23 14:04 | 37.52663 | -7.87995 | 37194 ft | 443 kts | 193° |
| 2026-04-23 14:04 | 37.49671 | -7.88843 | 37351 ft | 443 kts | 193° |
| 2026-04-23 14:05 | 37.46659 | -7.89696 | 37519 ft | 444 kts | 193° |
| 2026-04-23 14:05 | 37.43634 | -7.90552 | 37683 ft | 444 kts | 193° |
| 2026-04-23 14:05 | 37.40664 | -7.91392 | 37856 ft | 443 kts | 193° |
| 2026-04-23 14:05 | 37.37646 | -7.92246 | 38010 ft | 444 kts | 193° |
| 2026-04-23 14:06 | 37.34633 | -7.93098 | 38144 ft | 444 kts | 193° |
| 2026-04-23 14:06 | 37.31617 | -7.93949 | 38262 ft | 445 kts | 193° |
| 2026-04-23 14:06 | 37.28620 | -7.94795 | 38379 ft | 445 kts | 193° |
| 2026-04-23 14:06 | 37.25577 | -7.95653 | 38522 ft | 445 kts | 193° |
| 2026-04-23 14:07 | 37.22579 | -7.96496 | 38664 ft | 445 kts | 193° |
| 2026-04-23 14:07 | 37.16536 | -7.98195 | 38899 ft | 445 kts | 193° |
| 2026-04-23 14:07 | 37.13518 | -7.99042 | 38991 ft | 446 kts | 193° |
| 2026-04-23 14:08 | 37.07471 | -8.00740 | 38988 ft | 445 kts | 194° |
| 2026-04-23 14:08 | 37.01410 | -8.02438 | 38991 ft | 444 kts | 194° |
| 2026-04-23 14:09 | 36.95408 | -8.04117 | 38898 ft | 443 kts | 194° |
| 2026-04-23 14:09 | 36.89398 | -8.05794 | 38923 ft | 444 kts | 194° |
| 2026-04-23 14:10 | 36.83369 | -8.07467 | 38982 ft | 445 kts | 194° |
| 2026-04-23 14:10 | 36.77305 | -8.09147 | 38989 ft | 446 kts | 194° |
| 2026-04-23 14:11 | 36.71236 | -8.10830 | 38993 ft | 445 kts | 194° |
| 2026-04-23 14:11 | 36.65208 | -8.12501 | 38989 ft | 445 kts | 194° |
| 2026-04-23 14:12 | 36.59204 | -8.14165 | 38990 ft | 444 kts | 194° |
| 2026-04-23 14:12 | 36.53157 | -8.15838 | 38992 ft | 444 kts | 194° |
| 2026-04-23 14:13 | 36.47112 | -8.17508 | 38986 ft | 444 kts | 194° |
| 2026-04-23 14:13 | 36.41064 | -8.19175 | 38991 ft | 444 kts | 194° |
| 2026-04-23 14:14 | 36.35054 | -8.20829 | 38990 ft | 445 kts | 194° |
| 2026-04-23 14:14 | 36.29012 | -8.22489 | 38988 ft | 445 kts | 194° |
| 2026-04-23 14:15 | 36.22978 | -8.24145 | 38989 ft | 445 kts | 194° |
| 2026-04-23 14:15 | 36.16938 | -8.25800 | 38991 ft | 444 kts | 195° |
| 2026-04-23 14:16 | 36.10899 | -8.27453 | 38987 ft | 444 kts | 195° |
| 2026-04-23 14:16 | 36.04875 | -8.29100 | 38994 ft | 444 kts | 195° |
| 2026-04-23 14:17 | 35.98863 | -8.30742 | 38996 ft | 444 kts | 195° |
| 2026-04-23 14:17 | 35.92904 | -8.32543 | 38993 ft | 443 kts | 197° |
| 2026-04-23 14:18 | 35.86887 | -8.34443 | 38994 ft | 444 kts | 197° |
| 2026-04-23 14:18 | 35.80925 | -8.36317 | 38991 ft | 444 kts | 197° |
| 2026-04-23 14:19 | 35.74939 | -8.38204 | 38990 ft | 444 kts | 197° |
| 2026-04-23 14:19 | 35.68979 | -8.40084 | 38994 ft | 443 kts | 197° |
| 2026-04-23 14:20 | 35.63006 | -8.41969 | 38999 ft | 443 kts | 197° |
| 2026-04-23 14:20 | 35.57037 | -8.43850 | 38990 ft | 443 kts | 197° |
| 2026-04-23 14:21 | 35.51064 | -8.45730 | 38998 ft | 443 kts | 197° |
| 2026-04-23 14:21 | 35.45100 | -8.47605 | 38994 ft | 444 kts | 197° |
| 2026-04-23 14:22 | 35.39133 | -8.49479 | 38998 ft | 444 kts | 197° |
| 2026-04-23 14:22 | 35.33169 | -8.51347 | 38994 ft | 444 kts | 197° |
| 2026-04-23 14:23 | 35.27165 | -8.53225 | 38998 ft | 444 kts | 197° |
| 2026-04-23 14:23 | 35.21206 | -8.55086 | 38998 ft | 444 kts | 197° |
| 2026-04-23 14:24 | 35.15234 | -8.56948 | 38996 ft | 443 kts | 198° |
| 2026-04-23 14:24 | 35.09297 | -8.58797 | 38998 ft | 442 kts | 198° |
| 2026-04-23 14:25 | 35.03303 | -8.60660 | 39000 ft | 443 kts | 198° |
| 2026-04-23 14:25 | 34.97353 | -8.62509 | 38997 ft | 442 kts | 198° |
| 2026-04-23 14:26 | 34.91395 | -8.64356 | 39000 ft | 443 kts | 198° |
| 2026-04-23 14:26 | 34.85415 | -8.66216 | 38998 ft | 444 kts | 197° |
| 2026-04-23 14:27 | 34.79424 | -8.68085 | 38997 ft | 444 kts | 197° |
| 2026-04-23 14:27 | 34.73426 | -8.69943 | 39006 ft | 444 kts | 197° |
| 2026-04-23 14:28 | 34.67464 | -8.71782 | 39010 ft | 443 kts | 197° |
| 2026-04-23 14:28 | 34.61498 | -8.73618 | 38998 ft | 443 kts | 197° |
| 2026-04-23 14:29 | 34.55506 | -8.75459 | 39003 ft | 444 kts | 197° |
| 2026-04-23 14:29 | 34.49520 | -8.77297 | 39000 ft | 443 kts | 197° |
| 2026-04-23 14:30 | 34.43583 | -8.79113 | 38999 ft | 443 kts | 197° |
| 2026-04-23 14:30 | 34.37602 | -8.80933 | 39009 ft | 443 kts | 198° |
| 2026-04-23 14:31 | 34.31597 | -8.82757 | 38997 ft | 444 kts | 198° |
| 2026-04-23 14:31 | 34.25615 | -8.84571 | 39006 ft | 444 kts | 198° |
| 2026-04-23 14:32 | 34.19655 | -8.86377 | 39003 ft | 444 kts | 198° |
| 2026-04-23 14:32 | 34.13655 | -8.88192 | 39001 ft | 445 kts | 198° |
| 2026-04-23 14:33 | 34.07640 | -8.90009 | 39014 ft | 445 kts | 198° |
| 2026-04-23 14:33 | 34.01639 | -8.91819 | 39008 ft | 444 kts | 198° |
| 2026-04-23 14:34 | 33.95675 | -8.93616 | 39003 ft | 444 kts | 198° |
| 2026-04-23 14:34 | 33.89679 | -8.95421 | 39004 ft | 443 kts | 198° |
| 2026-04-23 14:35 | 33.83683 | -8.97213 | 39006 ft | 443 kts | 198° |
| 2026-04-23 14:35 | 33.77712 | -8.98999 | 39008 ft | 444 kts | 198° |
| 2026-04-23 14:36 | 33.71737 | -9.00789 | 39009 ft | 443 kts | 198° |
| 2026-04-23 14:36 | 33.65742 | -9.02579 | 39011 ft | 443 kts | 198° |
| 2026-04-23 14:37 | 33.59788 | -9.04355 | 38999 ft | 444 kts | 198° |
| 2026-04-23 14:37 | 33.53781 | -9.06146 | 39009 ft | 444 kts | 198° |
| 2026-04-23 14:38 | 33.47794 | -9.07929 | 39011 ft | 445 kts | 198° |
| 2026-04-23 14:38 | 33.41794 | -9.09716 | 39008 ft | 444 kts | 199° |
| 2026-04-23 14:39 | 33.35788 | -9.11501 | 39010 ft | 444 kts | 198° |
| 2026-04-23 14:39 | 33.29805 | -9.13277 | 39001 ft | 444 kts | 198° |
| 2026-04-23 14:40 | 33.23823 | -9.15053 | 39014 ft | 444 kts | 198° |
| 2026-04-23 14:40 | 33.17812 | -9.16831 | 39004 ft | 444 kts | 199° |
| 2026-04-23 14:41 | 33.11838 | -9.18597 | 39010 ft | 443 kts | 199° |
| 2026-04-23 14:41 | 33.05862 | -9.20368 | 38998 ft | 444 kts | 199° |
| 2026-04-23 14:42 | 32.99872 | -9.22144 | 39009 ft | 444 kts | 199° |
| 2026-04-23 14:42 | 32.93857 | -9.23923 | 39002 ft | 444 kts | 199° |
| 2026-04-23 14:43 | 32.87871 | -9.25692 | 38996 ft | 444 kts | 199° |
| 2026-04-23 14:43 | 32.81875 | -9.27450 | 38992 ft | 443 kts | 199° |
| 2026-04-23 14:44 | 32.75877 | -9.29211 | 38995 ft | 443 kts | 199° |
| 2026-04-23 14:44 | 32.69888 | -9.30974 | 39007 ft | 443 kts | 199° |
| 2026-04-23 14:45 | 32.63935 | -9.32723 | 39004 ft | 443 kts | 199° |
| 2026-04-23 14:45 | 32.57915 | -9.34489 | 38986 ft | 444 kts | 200° |
| 2026-04-23 14:46 | 32.51955 | -9.36238 | 38995 ft | 443 kts | 199° |
| 2026-04-23 14:46 | 32.45961 | -9.37993 | 38999 ft | 444 kts | 200° |
| 2026-04-23 14:47 | 32.39951 | -9.39751 | 39000 ft | 444 kts | 200° |
| 2026-04-23 14:47 | 32.33992 | -9.41491 | 38994 ft | 444 kts | 200° |
| 2026-04-23 14:48 | 32.27997 | -9.43240 | 38995 ft | 443 kts | 200° |
| 2026-04-23 14:48 | 32.22018 | -9.44981 | 38999 ft | 442 kts | 200° |
| 2026-04-23 14:49 | 32.16015 | -9.46727 | 38997 ft | 442 kts | 200° |
| 2026-04-23 14:49 | 32.10048 | -9.48460 | 38990 ft | 442 kts | 200° |
| 2026-04-23 14:50 | 32.04086 | -9.50189 | 38984 ft | 442 kts | 200° |
| 2026-04-23 14:50 | 31.98144 | -9.51912 | 39001 ft | 442 kts | 200° |
| 2026-04-23 14:51 | 31.92162 | -9.53644 | 38991 ft | 443 kts | 200° |
| 2026-04-23 14:51 | 31.86151 | -9.55376 | 38979 ft | 442 kts | 200° |
| 2026-04-23 14:52 | 31.80188 | -9.57086 | 38996 ft | 441 kts | 201° |
| 2026-04-23 14:52 | 31.74246 | -9.58795 | 38989 ft | 440 kts | 200° |
| 2026-04-23 14:53 | 31.68343 | -9.60497 | 38987 ft | 438 kts | 201° |
| 2026-04-23 14:53 | 31.62420 | -9.62203 | 38996 ft | 438 kts | 201° |
| 2026-04-23 14:54 | 31.56484 | -9.63915 | 38990 ft | 440 kts | 201° |
| 2026-04-23 14:54 | 31.50542 | -9.65614 | 38992 ft | 440 kts | 200° |
| 2026-04-23 14:55 | 31.44439 | -9.66758 | 38997 ft | 448 kts | 193° |
| 2026-04-23 14:55 | 31.38197 | -9.66975 | 38985 ft | 456 kts | 186° |
| 2026-04-23 14:56 | 31.31811 | -9.66206 | 38989 ft | 465 kts | 179° |
| 2026-04-23 14:56 | 31.25451 | -9.64564 | 38990 ft | 469 kts | 175° |
| 2026-04-23 14:57 | 31.19112 | -9.62789 | 38981 ft | 469 kts | 175° |
| 2026-04-23 14:57 | 31.12783 | -9.61022 | 38984 ft | 468 kts | 175° |
| 2026-04-23 14:58 | 31.06433 | -9.59257 | 38985 ft | 469 kts | 176° |
| 2026-04-23 14:58 | 31.00059 | -9.57458 | 38979 ft | 471 kts | 175° |
| 2026-04-23 14:59 | 30.93723 | -9.55632 | 38989 ft | 471 kts | 175° |
| 2026-04-23 14:59 | 30.87361 | -9.53805 | 39012 ft | 473 kts | 176° |
| 2026-04-23 15:00 | 30.80948 | -9.51971 | 39017 ft | 471 kts | 176° |
| 2026-04-23 15:00 | 30.74582 | -9.50150 | 39034 ft | 471 kts | 176° |
| 2026-04-23 15:01 | 30.68223 | -9.48355 | 39039 ft | 469 kts | 176° |
| 2026-04-23 15:01 | 30.61895 | -9.46595 | 39020 ft | 469 kts | 176° |
| 2026-04-23 15:02 | 30.55540 | -9.44822 | 39010 ft | 470 kts | 176° |
| 2026-04-23 15:02 | 30.49189 | -9.43050 | 38996 ft | 470 kts | 176° |
| 2026-04-23 15:03 | 30.42838 | -9.41280 | 38979 ft | 470 kts | 177° |
| 2026-04-23 15:03 | 30.36479 | -9.39512 | 38971 ft | 467 kts | 178° |
| 2026-04-23 15:04 | 30.30177 | -9.38211 | 38955 ft | 457 kts | 184° |
| 2026-04-23 15:04 | 30.23867 | -9.37542 | 38962 ft | 454 kts | 186° |
| 2026-04-23 15:05 | 30.17551 | -9.36954 | 38954 ft | 455 kts | 186° |
| 2026-04-23 15:05 | 30.11250 | -9.36365 | 38961 ft | 453 kts | 186° |
| 2026-04-23 15:06 | 30.04971 | -9.35777 | 38973 ft | 454 kts | 186° |
| 2026-04-23 15:06 | 29.98652 | -9.35186 | 38977 ft | 453 kts | 186° |
| 2026-04-23 15:07 | 29.92376 | -9.34588 | 38988 ft | 453 kts | 187° |
| 2026-04-23 15:07 | 29.86131 | -9.33980 | 38980 ft | 451 kts | 187° |
| 2026-04-23 15:08 | 29.79887 | -9.33379 | 38978 ft | 452 kts | 187° |
| 2026-04-23 15:09 | 29.70461 | -9.32503 | 38983 ft | 453 kts | 187° |
| 2026-04-23 15:09 | 29.64205 | -9.31922 | 38993 ft | 451 kts | 187° |
| 2026-04-23 15:10 | 29.59016 | -9.31437 | 39013 ft | 451 kts | 187° |
| 2026-04-23 15:10 | 29.51700 | -9.30764 | 39014 ft | 451 kts | 187° |
| 2026-04-23 15:11 | 29.45439 | -9.30187 | 39019 ft | 450 kts | 187° |
| 2026-04-23 15:11 | 29.39215 | -9.29613 | 39020 ft | 452 kts | 188° |
| 2026-04-23 15:12 | 29.32975 | -9.29041 | 39013 ft | 449 kts | 187° |
| 2026-04-23 15:12 | 29.26735 | -9.28466 | 39019 ft | 451 kts | 187° |
| 2026-04-23 15:13 | 29.20480 | -9.27892 | 39008 ft | 450 kts | 188° |
| 2026-04-23 15:13 | 29.14231 | -9.27320 | 38996 ft | 450 kts | 188° |
| 2026-04-23 15:14 | 29.07966 | -9.26750 | 39002 ft | 450 kts | 188° |
| 2026-04-23 15:14 | 29.01734 | -9.26180 | 38993 ft | 451 kts | 188° |
| 2026-04-23 15:15 | 28.95479 | -9.25610 | 38998 ft | 449 kts | 188° |
| 2026-04-23 15:15 | 28.89240 | -9.25045 | 38986 ft | 452 kts | 188° |
| 2026-04-23 15:16 | 28.82948 | -9.24473 | 38973 ft | 452 kts | 188° |
| 2026-04-23 15:16 | 28.76702 | -9.23904 | 38946 ft | 449 kts | 188° |
| 2026-04-23 15:17 | 28.70502 | -9.23345 | 38938 ft | 448 kts | 188° |
| 2026-04-23 15:17 | 28.64286 | -9.22787 | 38934 ft | 449 kts | 188° |
| 2026-04-23 15:18 | 28.58025 | -9.22229 | 38918 ft | 451 kts | 188° |
| 2026-04-23 15:18 | 28.51779 | -9.21667 | 38913 ft | 450 kts | 188° |
| 2026-04-23 15:19 | 28.45531 | -9.21108 | 38914 ft | 451 kts | 188° |
| 2026-04-23 15:19 | 28.39248 | -9.20548 | 38916 ft | 452 kts | 188° |
| 2026-04-23 15:20 | 28.34070 | -9.20085 | 38927 ft | 450 kts | 188° |
| 2026-04-23 15:20 | 28.26761 | -9.19434 | 38923 ft | 449 kts | 188° |
| 2026-04-23 15:21 | 28.20550 | -9.18883 | 38930 ft | 451 kts | 188° |
| 2026-04-23 15:21 | 28.14321 | -9.18326 | 38937 ft | 447 kts | 188° |
| 2026-04-23 15:22 | 28.08084 | -9.17774 | 38941 ft | 448 kts | 188° |
| 2026-04-23 15:22 | 28.01869 | -9.17221 | 38947 ft | 447 kts | 188° |
| 2026-04-23 15:23 | 27.95644 | -9.16673 | 38950 ft | 448 kts | 188° |
| 2026-04-23 15:23 | 27.89448 | -9.16124 | 38953 ft | 447 kts | 188° |
| 2026-04-23 15:24 | 27.83206 | -9.15569 | 38945 ft | 450 kts | 188° |
| 2026-04-23 15:24 | 27.76961 | -9.14990 | 38948 ft | 454 kts | 186° |
| 2026-04-23 15:25 | 27.70631 | -9.13557 | 38946 ft | 471 kts | 176° |
| 2026-04-23 15:25 | 27.64409 | -9.10875 | 38939 ft | 488 kts | 166° |
| 2026-04-23 15:26 | 27.58562 | -9.06925 | 38952 ft | 496 kts | 156° |
| 2026-04-23 15:26 | 27.53079 | -9.02122 | 38948 ft | 501 kts | 154° |
| 2026-04-23 15:27 | 27.47645 | -8.97246 | 38946 ft | 500 kts | 154° |
| 2026-04-23 15:27 | 27.42196 | -8.92390 | 38940 ft | 501 kts | 154° |
| 2026-04-23 15:28 | 27.36738 | -8.87543 | 38944 ft | 499 kts | 154° |
| 2026-04-23 15:28 | 27.31282 | -8.82715 | 38942 ft | 499 kts | 154° |
| 2026-04-23 15:29 | 27.25827 | -8.77893 | 38938 ft | 500 kts | 154° |
| 2026-04-23 15:29 | 27.20346 | -8.73055 | 38938 ft | 500 kts | 154° |
| 2026-04-23 15:30 | 27.14882 | -8.68238 | 38937 ft | 502 kts | 154° |
| 2026-04-23 15:30 | 27.09384 | -8.63398 | 38934 ft | 503 kts | 154° |
| 2026-04-23 15:31 | 27.03906 | -8.58573 | 38930 ft | 501 kts | 154° |
| 2026-04-23 15:31 | 26.98417 | -8.53754 | 38926 ft | 503 kts | 154° |
| 2026-04-23 15:32 | 26.92918 | -8.48934 | 38932 ft | 503 kts | 154° |
| 2026-04-23 15:32 | 26.87430 | -8.44130 | 38923 ft | 502 kts | 154° |
| 2026-04-23 15:33 | 26.81904 | -8.39314 | 38920 ft | 502 kts | 154° |
| 2026-04-23 15:33 | 26.76397 | -8.34511 | 38922 ft | 504 kts | 154° |
| 2026-04-23 15:34 | 26.70888 | -8.29675 | 38920 ft | 505 kts | 154° |
| 2026-04-23 15:34 | 26.65377 | -8.24840 | 38929 ft | 502 kts | 155° |
| 2026-04-23 15:35 | 26.59865 | -8.20036 | 38927 ft | 504 kts | 154° |
| 2026-04-23 15:35 | 26.54355 | -8.15240 | 38928 ft | 501 kts | 155° |
| 2026-04-23 15:36 | 26.48859 | -8.10475 | 38924 ft | 502 kts | 155° |
| 2026-04-23 15:36 | 26.43331 | -8.05680 | 38925 ft | 503 kts | 155° |
| 2026-04-23 15:37 | 26.37840 | -8.00920 | 38923 ft | 503 kts | 155° |
| 2026-04-23 15:37 | 26.33196 | -7.96906 | 38923 ft | 505 kts | 154° |
| 2026-04-23 15:38 | 26.26768 | -7.91345 | 38921 ft | 502 kts | 155° |
| 2026-04-23 15:38 | 26.21197 | -7.86545 | 38919 ft | 507 kts | 155° |
| 2026-04-23 15:39 | 26.15661 | -7.81773 | 38909 ft | 506 kts | 155° |
| 2026-04-23 15:39 | 26.10076 | -7.76959 | 38905 ft | 505 kts | 155° |
| 2026-04-23 15:40 | 26.04521 | -7.72182 | 38906 ft | 505 kts | 155° |
| 2026-04-23 15:40 | 25.98991 | -7.67438 | 38913 ft | 505 kts | 154° |
| 2026-04-23 15:41 | 25.93424 | -7.62665 | 38910 ft | 506 kts | 154° |
| 2026-04-23 15:41 | 25.87888 | -7.57919 | 38912 ft | 504 kts | 154° |
| 2026-04-23 15:42 | 25.82299 | -7.53158 | 38916 ft | 504 kts | 154° |
| 2026-04-23 15:42 | 25.76776 | -7.48442 | 38918 ft | 502 kts | 154° |
| 2026-04-23 15:43 | 25.71213 | -7.43697 | 38919 ft | 505 kts | 154° |
| 2026-04-23 15:43 | 25.65688 | -7.38980 | 38925 ft | 502 kts | 154° |
| 2026-04-23 15:44 | 25.60164 | -7.34266 | 38915 ft | 502 kts | 155° |
| 2026-04-23 15:44 | 25.54633 | -7.29533 | 38921 ft | 502 kts | 154° |
| 2026-04-23 15:45 | 25.49095 | -7.24819 | 38919 ft | 503 kts | 154° |
| 2026-04-23 15:45 | 25.43530 | -7.20095 | 38922 ft | 501 kts | 154° |
| 2026-04-23 15:46 | 25.38008 | -7.15415 | 38923 ft | 500 kts | 154° |
| 2026-04-23 15:46 | 25.32503 | -7.10757 | 38925 ft | 500 kts | 154° |
| 2026-04-23 15:47 | 25.27004 | -7.06109 | 38925 ft | 499 kts | 154° |
| 2026-04-23 15:47 | 25.21496 | -7.01462 | 38935 ft | 499 kts | 154° |
| 2026-04-23 15:48 | 25.15937 | -6.96775 | 38934 ft | 501 kts | 154° |
| 2026-04-23 15:48 | 25.10412 | -6.92120 | 38935 ft | 502 kts | 154° |
| 2026-04-23 15:48 | 25.07650 | -6.89799 | 39054 ft | 503 kts | 154° |
| 2026-04-23 15:49 | 25.04876 | -6.87464 | 39278 ft | 503 kts | 154° |
| 2026-04-23 15:49 | 25.02076 | -6.85110 | 39578 ft | 501 kts | 154° |
| 2026-04-23 15:49 | 24.99327 | -6.82800 | 39846 ft | 500 kts | 154° |
| 2026-04-23 15:49 | 24.96560 | -6.80477 | 40028 ft | 500 kts | 154° |
| 2026-04-23 15:50 | 24.93803 | -6.78162 | 40184 ft | 500 kts | 154° |
| 2026-04-23 15:50 | 24.91026 | -6.75835 | 40344 ft | 500 kts | 154° |
| 2026-04-23 15:50 | 24.88288 | -6.73544 | 40547 ft | 499 kts | 154° |
| 2026-04-23 15:50 | 24.85515 | -6.71229 | 40754 ft | 499 kts | 154° |
| 2026-04-23 15:51 | 24.82745 | -6.68919 | 40881 ft | 499 kts | 154° |
| 2026-04-23 15:51 | 24.77232 | -6.64316 | 40885 ft | 498 kts | 153° |
| 2026-04-23 15:52 | 24.71696 | -6.59692 | 40885 ft | 498 kts | 153° |
| 2026-04-23 15:52 | 24.66165 | -6.55077 | 40875 ft | 499 kts | 153° |
| 2026-04-23 15:53 | 24.60632 | -6.50462 | 40871 ft | 497 kts | 153° |
| 2026-04-23 15:53 | 24.55127 | -6.45878 | 40869 ft | 498 kts | 153° |
| 2026-04-23 15:54 | 24.49619 | -6.41300 | 40864 ft | 498 kts | 153° |
| 2026-04-23 15:54 | 24.44093 | -6.36704 | 40860 ft | 498 kts | 153° |
| 2026-04-23 15:55 | 24.38574 | -6.32106 | 40851 ft | 497 kts | 153° |
| 2026-04-23 15:55 | 24.33050 | -6.27497 | 40851 ft | 498 kts | 153° |
| 2026-04-23 15:56 | 24.27533 | -6.22920 | 40850 ft | 498 kts | 153° |
| 2026-04-23 15:56 | 24.22020 | -6.18362 | 40845 ft | 496 kts | 153° |
| 2026-04-23 15:57 | 24.16491 | -6.13793 | 40840 ft | 497 kts | 153° |
| 2026-04-23 15:57 | 24.10975 | -6.09243 | 40835 ft | 498 kts | 153° |
| 2026-04-23 15:58 | 24.05439 | -6.04673 | 40830 ft | 498 kts | 153° |
| 2026-04-23 15:58 | 23.99915 | -6.00126 | 40822 ft | 497 kts | 153° |
| 2026-04-23 15:59 | 23.94399 | -5.95589 | 40836 ft | 498 kts | 153° |
| 2026-04-23 15:59 | 23.88890 | -5.91062 | 40845 ft | 497 kts | 153° |
| 2026-04-23 16:00 | 23.83364 | -5.86544 | 40842 ft | 495 kts | 153° |
| 2026-04-23 16:00 | 23.77869 | -5.82047 | 40845 ft | 494 kts | 153° |
| 2026-04-23 16:01 | 23.72335 | -5.77526 | 40838 ft | 496 kts | 153° |
| 2026-04-23 16:01 | 23.66810 | -5.73009 | 40837 ft | 497 kts | 153° |
| 2026-04-23 16:02 | 23.61313 | -5.68514 | 40838 ft | 497 kts | 153° |
| 2026-04-23 16:02 | 23.55772 | -5.63988 | 40829 ft | 496 kts | 153° |
| 2026-04-23 16:03 | 23.50254 | -5.59490 | 40828 ft | 495 kts | 153° |
| 2026-04-23 16:03 | 23.44744 | -5.55003 | 40826 ft | 496 kts | 153° |
| 2026-04-23 16:04 | 23.39216 | -5.50505 | 40823 ft | 496 kts | 153° |
| 2026-04-23 16:04 | 23.33698 | -5.46019 | 40818 ft | 495 kts | 153° |
| 2026-04-23 16:05 | 23.29127 | -5.42306 | 40818 ft | 494 kts | 153° |
| 2026-04-23 16:05 | 23.22706 | -5.37097 | 40813 ft | 494 kts | 153° |
| 2026-04-23 16:06 | 23.17159 | -5.32592 | 40815 ft | 495 kts | 153° |
| 2026-04-23 16:06 | 23.11672 | -5.28119 | 40814 ft | 495 kts | 153° |
| 2026-04-23 16:07 | 23.06162 | -5.23650 | 40814 ft | 496 kts | 153° |
| 2026-04-23 16:07 | 23.00599 | -5.19150 | 40819 ft | 496 kts | 153° |
| 2026-04-23 16:08 | 22.95095 | -5.14704 | 40814 ft | 494 kts | 153° |
| 2026-04-23 16:08 | 22.89569 | -5.10255 | 40816 ft | 495 kts | 153° |
| 2026-04-23 16:09 | 22.84041 | -5.05819 | 40815 ft | 494 kts | 153° |
| 2026-04-23 16:09 | 22.78515 | -5.01386 | 40809 ft | 494 kts | 153° |
| 2026-04-23 16:10 | 22.72970 | -4.96935 | 40815 ft | 493 kts | 153° |
| 2026-04-23 16:10 | 22.67479 | -4.92530 | 40810 ft | 494 kts | 153° |
| 2026-04-23 16:11 | 22.61937 | -4.88087 | 40810 ft | 494 kts | 153° |
| 2026-04-23 16:11 | 22.56424 | -4.83669 | 40812 ft | 493 kts | 153° |
| 2026-04-23 16:12 | 22.50896 | -4.79246 | 40812 ft | 494 kts | 152° |
| 2026-04-23 16:12 | 22.45381 | -4.74840 | 40805 ft | 494 kts | 152° |
| 2026-04-23 16:13 | 22.39815 | -4.70394 | 40808 ft | 495 kts | 152° |
| 2026-04-23 16:13 | 22.31548 | -4.63799 | 40804 ft | 495 kts | 152° |
| 2026-04-23 16:14 | 22.25998 | -4.59375 | 40802 ft | 493 kts | 152° |
| 2026-04-23 16:14 | 22.20455 | -4.54966 | 40801 ft | 495 kts | 152° |
| 2026-04-23 16:15 | 22.14925 | -4.50568 | 40801 ft | 494 kts | 152° |
| 2026-04-23 16:15 | 22.09392 | -4.46176 | 40799 ft | 495 kts | 152° |
| 2026-04-23 16:16 | 22.03842 | -4.41771 | 40808 ft | 493 kts | 152° |
| 2026-04-23 16:16 | 21.98322 | -4.37393 | 40815 ft | 494 kts | 152° |
| 2026-04-23 16:17 | 21.92754 | -4.32977 | 40809 ft | 494 kts | 152° |
| 2026-04-23 16:17 | 21.87238 | -4.28585 | 40814 ft | 492 kts | 152° |
| 2026-04-23 16:18 | 21.81736 | -4.24240 | 40820 ft | 492 kts | 152° |
| 2026-04-23 16:18 | 21.76210 | -4.19881 | 40822 ft | 492 kts | 152° |
| 2026-04-23 16:19 | 21.70707 | -4.15544 | 40822 ft | 493 kts | 152° |
| 2026-04-23 16:19 | 21.65198 | -4.11204 | 40823 ft | 493 kts | 152° |
| 2026-04-23 16:20 | 21.59654 | -4.06837 | 40821 ft | 493 kts | 152° |
| 2026-04-23 16:20 | 21.54126 | -4.02487 | 40826 ft | 492 kts | 152° |
| 2026-04-23 16:21 | 21.48590 | -3.98137 | 40824 ft | 493 kts | 152° |
| 2026-04-23 16:21 | 21.43050 | -3.93789 | 40831 ft | 493 kts | 152° |
| 2026-04-23 16:22 | 21.37503 | -3.89437 | 40840 ft | 494 kts | 152° |
| 2026-04-23 16:22 | 21.31964 | -3.85099 | 40841 ft | 494 kts | 152° |
| 2026-04-23 16:23 | 21.26427 | -3.80767 | 40845 ft | 494 kts | 152° |
| 2026-04-23 16:23 | 21.20861 | -3.76420 | 40842 ft | 494 kts | 152° |
| 2026-04-23 16:24 | 21.15345 | -3.72109 | 40841 ft | 492 kts | 152° |
| 2026-04-23 16:24 | 21.09822 | -3.67800 | 40843 ft | 493 kts | 152° |
| 2026-04-23 16:25 | 21.04275 | -3.63475 | 40843 ft | 492 kts | 152° |
| 2026-04-23 16:25 | 20.98736 | -3.59160 | 40841 ft | 491 kts | 152° |
| 2026-04-23 16:26 | 20.93224 | -3.54874 | 40841 ft | 492 kts | 151° |
| 2026-04-23 16:26 | 20.87661 | -3.50553 | 40840 ft | 492 kts | 151° |
| 2026-04-23 16:27 | 20.82114 | -3.46267 | 40842 ft | 494 kts | 151° |
| 2026-04-23 16:27 | 20.76551 | -3.41961 | 40840 ft | 495 kts | 151° |
| 2026-04-23 16:28 | 20.70967 | -3.37631 | 40839 ft | 494 kts | 151° |
| 2026-04-23 16:28 | 20.65411 | -3.33323 | 40837 ft | 495 kts | 151° |
| 2026-04-23 16:29 | 20.59879 | -3.29008 | 40841 ft | 492 kts | 151° |
| 2026-04-23 16:29 | 20.54324 | -3.24692 | 40839 ft | 492 kts | 151° |
| 2026-04-23 16:30 | 20.48787 | -3.20413 | 40845 ft | 492 kts | 151° |
| 2026-04-23 16:30 | 20.43237 | -3.16130 | 40840 ft | 493 kts | 151° |
| 2026-04-23 16:31 | 20.37654 | -3.11825 | 40834 ft | 493 kts | 151° |
| 2026-04-23 16:31 | 20.32119 | -3.07561 | 40833 ft | 492 kts | 151° |
| 2026-04-23 16:32 | 20.26582 | -3.03299 | 40833 ft | 492 kts | 151° |
| 2026-04-23 16:32 | 20.21017 | -2.99020 | 40825 ft | 492 kts | 151° |
| 2026-04-23 16:33 | 20.15487 | -2.94771 | 40831 ft | 492 kts | 151° |
| 2026-04-23 16:33 | 20.09924 | -2.90503 | 40839 ft | 491 kts | 151° |
| 2026-04-23 16:34 | 20.04379 | -2.86250 | 40844 ft | 491 kts | 150° |
| 2026-04-23 16:34 | 19.98827 | -2.81996 | 40842 ft | 491 kts | 151° |
| 2026-04-23 16:35 | 19.93306 | -2.77769 | 40841 ft | 492 kts | 150° |
| 2026-04-23 16:35 | 19.87755 | -2.73528 | 40846 ft | 491 kts | 151° |
| 2026-04-23 16:36 | 19.82183 | -2.69291 | 40839 ft | 492 kts | 150° |
| 2026-04-23 16:36 | 19.76626 | -2.65058 | 40843 ft | 492 kts | 151° |
| 2026-04-23 16:37 | 19.71091 | -2.60838 | 40839 ft | 491 kts | 150° |
| 2026-04-23 16:37 | 19.65524 | -2.56597 | 40834 ft | 492 kts | 150° |
| 2026-04-23 16:38 | 19.59964 | -2.52363 | 40832 ft | 492 kts | 150° |
| 2026-04-23 16:38 | 19.54400 | -2.48130 | 40828 ft | 492 kts | 150° |
| 2026-04-23 16:39 | 19.48843 | -2.43905 | 40822 ft | 491 kts | 150° |
| 2026-04-23 16:39 | 19.43268 | -2.39673 | 40818 ft | 491 kts | 150° |
| 2026-04-23 16:40 | 19.37692 | -2.35439 | 40816 ft | 492 kts | 150° |
| 2026-04-23 16:40 | 19.32178 | -2.31235 | 40813 ft | 491 kts | 150° |
| 2026-04-23 16:41 | 19.26628 | -2.27002 | 40816 ft | 490 kts | 151° |
| 2026-04-23 16:41 | 19.21080 | -2.22796 | 40815 ft | 490 kts | 151° |
| 2026-04-23 16:42 | 19.15537 | -2.18603 | 40819 ft | 491 kts | 150° |
| 2026-04-23 16:42 | 19.10001 | -2.14419 | 40815 ft | 491 kts | 150° |
| 2026-04-23 16:43 | 19.04425 | -2.10210 | 40816 ft | 492 kts | 151° |
| 2026-04-23 16:43 | 18.98856 | -2.06006 | 40818 ft | 491 kts | 151° |
| 2026-04-23 16:44 | 18.93283 | -2.01807 | 40812 ft | 491 kts | 150° |
| 2026-04-23 16:44 | 18.87709 | -1.97615 | 40817 ft | 490 kts | 151° |
| 2026-04-23 16:45 | 18.82154 | -1.93455 | 40812 ft | 491 kts | 150° |
| 2026-04-23 16:45 | 18.76572 | -1.89264 | 40812 ft | 491 kts | 150° |
| 2026-04-23 16:46 | 18.71048 | -1.85116 | 40810 ft | 490 kts | 150° |
| 2026-04-23 16:46 | 18.65500 | -1.80947 | 40812 ft | 489 kts | 150° |
| 2026-04-23 16:47 | 18.59919 | -1.76760 | 40814 ft | 490 kts | 150° |
| 2026-04-23 16:47 | 18.54500 | -1.72701 | 40810 ft | 489 kts | 150° |
| 2026-04-23 16:48 | 18.48918 | -1.68528 | 40812 ft | 489 kts | 150° |
| 2026-04-23 16:48 | 18.43348 | -1.64366 | 40816 ft | 492 kts | 150° |
| 2026-04-23 16:49 | 18.37739 | -1.60176 | 40815 ft | 497 kts | 150° |
| 2026-04-23 16:49 | 18.32071 | -1.55944 | 40819 ft | 500 kts | 149° |
| 2026-04-23 16:50 | 18.26406 | -1.51713 | 40813 ft | 500 kts | 149° |
| 2026-04-23 16:50 | 18.20724 | -1.47476 | 40819 ft | 501 kts | 149° |
| 2026-04-23 16:51 | 18.15019 | -1.43223 | 40815 ft | 498 kts | 149° |
| 2026-04-23 16:51 | 18.09359 | -1.39016 | 40822 ft | 501 kts | 149° |
| 2026-04-23 16:52 | 18.03656 | -1.34782 | 40821 ft | 501 kts | 149° |
| 2026-04-23 16:52 | 17.97988 | -1.30539 | 40825 ft | 501 kts | 149° |
| 2026-04-23 16:53 | 17.92304 | -1.26293 | 40820 ft | 500 kts | 149° |
| 2026-04-23 16:53 | 17.86611 | -1.22068 | 40826 ft | 499 kts | 149° |
| 2026-04-23 16:54 | 17.80937 | -1.17879 | 40825 ft | 499 kts | 149° |
| 2026-04-23 16:54 | 17.75275 | -1.13694 | 40825 ft | 499 kts | 149° |
| 2026-04-23 16:55 | 17.69602 | -1.09495 | 40817 ft | 499 kts | 149° |
| 2026-04-23 16:55 | 17.63923 | -1.05295 | 40816 ft | 499 kts | 149° |
| 2026-04-23 16:56 | 17.58278 | -1.01122 | 40805 ft | 499 kts | 149° |
| 2026-04-23 16:56 | 17.52593 | -0.96923 | 40801 ft | 498 kts | 149° |
| 2026-04-23 16:57 | 17.46944 | -0.92753 | 40801 ft | 497 kts | 149° |
| 2026-04-23 16:57 | 17.41302 | -0.88594 | 40801 ft | 497 kts | 149° |
| 2026-04-23 16:58 | 17.35603 | -0.84393 | 40799 ft | 498 kts | 149° |
| 2026-04-23 16:58 | 17.29961 | -0.80241 | 40798 ft | 498 kts | 149° |
| 2026-04-23 16:59 | 17.24284 | -0.76064 | 40805 ft | 498 kts | 149° |
| 2026-04-23 16:59 | 17.18612 | -0.71893 | 40798 ft | 497 kts | 149° |
| 2026-04-23 17:00 | 17.12959 | -0.67741 | 40797 ft | 496 kts | 149° |
| 2026-04-23 17:00 | 17.07298 | -0.63586 | 40794 ft | 497 kts | 149° |
| 2026-04-23 17:01 | 17.01657 | -0.59449 | 40790 ft | 497 kts | 149° |
| 2026-04-23 17:01 | 16.95993 | -0.55298 | 40791 ft | 497 kts | 149° |
| 2026-04-23 17:02 | 16.90327 | -0.51146 | 40804 ft | 496 kts | 149° |
| 2026-04-23 17:02 | 16.84674 | -0.47024 | 40810 ft | 496 kts | 149° |
| 2026-04-23 17:03 | 16.79005 | -0.42896 | 40807 ft | 496 kts | 149° |
| 2026-04-23 17:03 | 16.73354 | -0.38770 | 40807 ft | 495 kts | 149° |
| 2026-04-23 17:04 | 16.67713 | -0.34650 | 40800 ft | 496 kts | 149° |
| 2026-04-23 17:04 | 16.62088 | -0.30515 | 40795 ft | 495 kts | 149° |
| 2026-04-23 17:05 | 16.56457 | -0.26388 | 40808 ft | 495 kts | 149° |
| 2026-04-23 17:05 | 16.50787 | -0.22253 | 40805 ft | 495 kts | 149° |
| 2026-04-23 17:06 | 16.45143 | -0.18142 | 40800 ft | 495 kts | 149° |
| 2026-04-23 17:06 | 16.39512 | -0.14047 | 40797 ft | 494 kts | 149° |
| 2026-04-23 17:07 | 16.33872 | -0.09947 | 40794 ft | 493 kts | 149° |
| 2026-04-23 17:07 | 16.28048 | -0.06294 | 40792 ft | 487 kts | 159° |
| 2026-04-23 17:08 | 16.21722 | -0.03829 | 40792 ft | 481 kts | 169° |
| 2026-04-23 17:08 | 16.15164 | -0.02637 | 40795 ft | 474 kts | 180° |
| 2026-04-23 17:09 | 16.08613 | -0.02476 | 40799 ft | 472 kts | 184° |
| 2026-04-23 17:09 | 16.02040 | -0.02465 | 40806 ft | 472 kts | 184° |
| 2026-04-23 17:10 | 15.95435 | -0.02447 | 40807 ft | 472 kts | 184° |
| 2026-04-23 17:10 | 15.88895 | -0.02417 | 40800 ft | 471 kts | 183° |
| 2026-04-23 17:11 | 15.82315 | -0.02379 | 40800 ft | 471 kts | 183° |
| 2026-04-23 17:11 | 15.75780 | -0.02342 | 40794 ft | 471 kts | 183° |
| 2026-04-23 17:12 | 15.69183 | -0.02305 | 40783 ft | 472 kts | 183° |
| 2026-04-23 17:12 | 15.62629 | -0.02270 | 40778 ft | 472 kts | 183° |
| 2026-04-23 17:13 | 15.56041 | -0.02234 | 40777 ft | 472 kts | 183° |
| 2026-04-23 17:13 | 15.49459 | -0.02197 | 40773 ft | 472 kts | 183° |
| 2026-04-23 17:14 | 15.42908 | -0.02161 | 40769 ft | 472 kts | 182° |
| 2026-04-23 17:14 | 15.36322 | -0.02125 | 40770 ft | 472 kts | 182° |
| 2026-04-23 17:15 | 15.29725 | -0.02089 | 40768 ft | 473 kts | 182° |
| 2026-04-23 17:15 | 15.23129 | -0.02054 | 40766 ft | 473 kts | 182° |
| 2026-04-23 17:16 | 15.16580 | -0.02016 | 40761 ft | 472 kts | 182° |
| 2026-04-23 17:16 | 15.09966 | -0.01981 | 40759 ft | 473 kts | 182° |
| 2026-04-23 17:17 | 15.03377 | -0.01947 | 40756 ft | 474 kts | 182° |
| 2026-04-23 17:17 | 14.96782 | -0.01911 | 40758 ft | 474 kts | 182° |
| 2026-04-23 17:18 | 14.86874 | -0.01853 | 40764 ft | 473 kts | 182° |
| 2026-04-23 17:19 | 14.80263 | -0.01818 | 40768 ft | 473 kts | 182° |
| 2026-04-23 17:19 | 14.73681 | -0.01780 | 40776 ft | 472 kts | 182° |
| 2026-04-23 17:20 | 14.67097 | -0.01744 | 40773 ft | 472 kts | 182° |
| 2026-04-23 17:21 | 14.53953 | -0.01673 | 40788 ft | 472 kts | 182° |
| 2026-04-23 17:21 | 14.44048 | -0.01621 | 40776 ft | 473 kts | 182° |
| 2026-04-23 17:22 | 14.34199 | -0.01569 | 40768 ft | 472 kts | 182° |
| 2026-04-23 17:23 | 14.24301 | -0.01516 | 40766 ft | 472 kts | 182° |
| 2026-04-23 17:24 | 14.14450 | -0.01466 | 40761 ft | 472 kts | 182° |
| 2026-04-23 17:24 | 14.04591 | -0.01414 | 40755 ft | 472 kts | 181° |
| 2026-04-23 17:25 | 13.94778 | -0.00347 | 40752 ft | 475 kts | 170° |
| 2026-04-23 17:26 | 13.82257 | 0.04206 | 40753 ft | 480 kts | 156° |
| 2026-04-23 17:27 | 13.73269 | 0.08768 | 40749 ft | 480 kts | 156° |
| 2026-04-23 17:27 | 13.67292 | 0.11803 | 40749 ft | 479 kts | 156° |
| 2026-04-23 17:28 | 13.61308 | 0.14834 | 40749 ft | 479 kts | 156° |
| 2026-04-23 17:28 | 13.55327 | 0.17860 | 40748 ft | 478 kts | 156° |
| 2026-04-23 17:29 | 13.49346 | 0.20882 | 40755 ft | 478 kts | 156° |
| 2026-04-23 17:30 | 13.41376 | 0.24909 | 40749 ft | 478 kts | 156° |
| 2026-04-23 17:30 | 13.31407 | 0.29940 | 40735 ft | 478 kts | 156° |
| 2026-04-23 17:31 | 13.25448 | 0.32943 | 40741 ft | 477 kts | 156° |
| 2026-04-23 17:31 | 13.19503 | 0.35941 | 40744 ft | 476 kts | 156° |
| 2026-04-23 17:32 | 13.13551 | 0.38938 | 40748 ft | 476 kts | 156° |
| 2026-04-23 17:32 | 13.07578 | 0.41946 | 40747 ft | 475 kts | 156° |
| 2026-04-23 17:33 | 13.01657 | 0.44924 | 40743 ft | 476 kts | 156° |
| 2026-04-23 17:33 | 12.95693 | 0.47925 | 40748 ft | 475 kts | 156° |
| 2026-04-23 17:34 | 12.89783 | 0.50896 | 40742 ft | 475 kts | 156° |
| 2026-04-23 17:35 | 12.80866 | 0.55356 | 40737 ft | 474 kts | 156° |
| 2026-04-23 17:35 | 12.71971 | 0.59811 | 40733 ft | 473 kts | 156° |
| 2026-04-23 17:36 | 12.66076 | 0.62769 | 40732 ft | 472 kts | 156° |
| 2026-04-23 17:36 | 12.60159 | 0.65737 | 40730 ft | 471 kts | 156° |
| 2026-04-23 17:37 | 12.54286 | 0.68710 | 40729 ft | 471 kts | 156° |
| 2026-04-23 17:38 | 12.45470 | 0.73150 | 40725 ft | 470 kts | 156° |
| 2026-04-23 17:38 | 12.39607 | 0.76089 | 40727 ft | 469 kts | 156° |
| 2026-04-23 17:39 | 12.33718 | 0.79036 | 40724 ft | 468 kts | 156° |
| 2026-04-23 17:39 | 12.27873 | 0.81958 | 40720 ft | 468 kts | 156° |
| 2026-04-23 17:40 | 12.22040 | 0.84871 | 40724 ft | 468 kts | 156° |
| 2026-04-23 17:40 | 12.16180 | 0.87799 | 40725 ft | 468 kts | 156° |
| 2026-04-23 17:41 | 12.10322 | 0.90722 | 40724 ft | 467 kts | 156° |
| 2026-04-23 17:41 | 12.01548 | 0.95101 | 40729 ft | 466 kts | 156° |
| 2026-04-23 17:42 | 11.92830 | 0.99446 | 40722 ft | 464 kts | 156° |
| 2026-04-23 17:43 | 11.87014 | 1.02341 | 40713 ft | 465 kts | 156° |
| 2026-04-23 17:43 | 11.81207 | 1.05219 | 40722 ft | 464 kts | 156° |
| 2026-04-23 17:44 | 11.75383 | 1.08111 | 40717 ft | 465 kts | 155° |
| 2026-04-23 17:44 | 11.66668 | 1.12442 | 40701 ft | 465 kts | 155° |
| 2026-04-23 17:45 | 11.57919 | 1.16793 | 40692 ft | 465 kts | 155° |
| 2026-04-23 17:46 | 11.49216 | 1.21118 | 40694 ft | 464 kts | 155° |
| 2026-04-23 17:46 | 11.43389 | 1.24011 | 40688 ft | 464 kts | 155° |
| 2026-04-23 17:47 | 11.37569 | 1.26898 | 40692 ft | 464 kts | 155° |
| 2026-04-23 17:48 | 11.28871 | 1.31215 | 40679 ft | 463 kts | 155° |
| 2026-04-23 17:48 | 11.23076 | 1.34087 | 40678 ft | 463 kts | 155° |
| 2026-04-23 17:49 | 11.17256 | 1.36970 | 40683 ft | 464 kts | 155° |
| 2026-04-23 17:49 | 11.11468 | 1.39840 | 40689 ft | 463 kts | 155° |
| 2026-04-23 17:50 | 11.05644 | 1.42726 | 40706 ft | 463 kts | 155° |
| 2026-04-23 17:50 | 10.97249 | 1.47702 | 40730 ft | 466 kts | 146° |
| 2026-04-23 17:51 | 10.92052 | 1.51623 | 40742 ft | 465 kts | 144° |
| 2026-04-23 17:52 | 10.84313 | 1.57567 | 40756 ft | 465 kts | 144° |
| 2026-04-23 17:52 | 10.76573 | 1.63507 | 40769 ft | 465 kts | 144° |
| 2026-04-23 17:53 | 10.68831 | 1.69485 | 40777 ft | 465 kts | 144° |
| 2026-04-23 17:54 | 10.63690 | 1.73458 | 40780 ft | 465 kts | 144° |
| 2026-04-23 17:54 | 10.55950 | 1.79411 | 40768 ft | 464 kts | 144° |
| 2026-04-23 17:55 | 10.48195 | 1.85366 | 40770 ft | 464 kts | 144° |
| 2026-04-23 17:56 | 10.43069 | 1.89299 | 40763 ft | 463 kts | 144° |
| 2026-04-23 17:56 | 10.35355 | 1.95214 | 40755 ft | 462 kts | 144° |
| 2026-04-23 17:57 | 10.30247 | 1.99130 | 40746 ft | 461 kts | 144° |
| 2026-04-23 17:58 | 10.22531 | 2.05040 | 40750 ft | 462 kts | 144° |
| 2026-04-23 17:58 | 10.17409 | 2.08960 | 40762 ft | 462 kts | 144° |
| 2026-04-23 17:59 | 10.12275 | 2.12887 | 40759 ft | 461 kts | 144° |
| 2026-04-23 17:59 | 10.07131 | 2.16823 | 40757 ft | 461 kts | 144° |
| 2026-04-23 18:00 | 10.02047 | 2.20711 | 40757 ft | 460 kts | 144° |
| 2026-04-23 18:00 | 9.96907 | 2.24640 | 40754 ft | 461 kts | 144° |
| 2026-04-23 18:01 | 9.91780 | 2.28558 | 40753 ft | 461 kts | 144° |
| 2026-04-23 18:01 | 9.86683 | 2.32441 | 40755 ft | 461 kts | 144° |
| 2026-04-23 18:02 | 9.82372 | 2.35712 | 40756 ft | 461 kts | 144° |
| 2026-04-23 18:02 | 9.76420 | 2.40241 | 40749 ft | 460 kts | 144° |
| 2026-04-23 18:03 | 9.71290 | 2.44153 | 40747 ft | 461 kts | 144° |
| 2026-04-23 18:03 | 9.66171 | 2.48057 | 40752 ft | 461 kts | 144° |
| 2026-04-23 18:04 | 9.61051 | 2.51959 | 40753 ft | 460 kts | 144° |
| 2026-04-23 18:04 | 9.55937 | 2.55856 | 40754 ft | 461 kts | 144° |
| 2026-04-23 18:05 | 9.50793 | 2.59773 | 40760 ft | 461 kts | 144° |
| 2026-04-23 18:05 | 9.45681 | 2.63666 | 40760 ft | 461 kts | 144° |
| 2026-04-23 18:06 | 9.40558 | 2.67578 | 40758 ft | 461 kts | 144° |
| 2026-04-23 18:06 | 9.35434 | 2.71505 | 40760 ft | 461 kts | 144° |
| 2026-04-23 18:07 | 9.30300 | 2.75418 | 40760 ft | 460 kts | 144° |
| 2026-04-23 18:07 | 9.25191 | 2.79303 | 40758 ft | 460 kts | 144° |
| 2026-04-23 18:08 | 9.20938 | 2.82535 | 40762 ft | 459 kts | 144° |
| 2026-04-23 18:08 | 9.14976 | 2.87060 | 40762 ft | 458 kts | 144° |
| 2026-04-23 18:09 | 9.09847 | 2.90961 | 40760 ft | 460 kts | 143° |
| 2026-04-23 18:09 | 9.04975 | 2.95148 | 40758 ft | 461 kts | 138° |
| 2026-04-23 18:10 | 9.00438 | 2.99697 | 40768 ft | 461 kts | 136° |
| 2026-04-23 18:10 | 8.95912 | 3.04297 | 40784 ft | 461 kts | 136° |
| 2026-04-23 18:11 | 8.91383 | 3.08897 | 40780 ft | 461 kts | 136° |
| 2026-04-23 18:11 | 8.86844 | 3.13485 | 40783 ft | 461 kts | 136° |
| 2026-04-23 18:12 | 8.82304 | 3.18061 | 40787 ft | 461 kts | 136° |
| 2026-04-23 18:12 | 8.77767 | 3.22646 | 40787 ft | 462 kts | 136° |
| 2026-04-23 18:13 | 8.73212 | 3.27256 | 40789 ft | 462 kts | 136° |
| 2026-04-23 18:13 | 8.68676 | 3.31844 | 40790 ft | 463 kts | 136° |
| 2026-04-23 18:14 | 8.64110 | 3.36466 | 40791 ft | 463 kts | 136° |
| 2026-04-23 18:14 | 8.59553 | 3.41075 | 40796 ft | 464 kts | 136° |
| 2026-04-23 18:15 | 8.55010 | 3.45673 | 40801 ft | 463 kts | 136° |
| 2026-04-23 18:15 | 8.50464 | 3.50269 | 40805 ft | 464 kts | 136° |
| 2026-04-23 18:16 | 8.45890 | 3.54893 | 40805 ft | 464 kts | 136° |
| 2026-04-23 18:16 | 8.41325 | 3.59504 | 40795 ft | 465 kts | 136° |
| 2026-04-23 18:17 | 8.34458 | 3.66445 | 40787 ft | 465 kts | 136° |
| 2026-04-23 18:17 | 8.29900 | 3.71077 | 40783 ft | 465 kts | 136° |
| 2026-04-23 18:18 | 8.25359 | 3.75678 | 40787 ft | 465 kts | 136° |
| 2026-04-23 18:18 | 8.20786 | 3.80297 | 40788 ft | 465 kts | 136° |
| 2026-04-23 18:19 | 8.16181 | 3.84946 | 40784 ft | 466 kts | 136° |
| 2026-04-23 18:19 | 8.11609 | 3.89555 | 40790 ft | 466 kts | 136° |
| 2026-04-23 18:20 | 8.07021 | 3.94178 | 40790 ft | 466 kts | 136° |
| 2026-04-23 18:20 | 8.02465 | 3.98769 | 40793 ft | 466 kts | 136° |
| 2026-04-23 18:21 | 7.97852 | 4.03417 | 40794 ft | 465 kts | 136° |
| 2026-04-23 18:21 | 7.93296 | 4.08002 | 40793 ft | 465 kts | 136° |
| 2026-04-23 18:22 | 7.88697 | 4.12628 | 40804 ft | 465 kts | 136° |
| 2026-04-23 18:22 | 7.84089 | 4.17231 | 40795 ft | 465 kts | 136° |
| 2026-04-23 18:23 | 7.77212 | 4.24123 | 40809 ft | 463 kts | 135° |
| 2026-04-23 18:24 | 7.70362 | 4.31005 | 40805 ft | 463 kts | 135° |
| 2026-04-23 18:25 | 7.63515 | 4.37883 | 40808 ft | 462 kts | 135° |
| 2026-04-23 18:25 | 7.58962 | 4.42456 | 40798 ft | 462 kts | 135° |
| 2026-04-23 18:26 | 7.54412 | 4.47026 | 40803 ft | 461 kts | 135° |
| 2026-04-23 18:26 | 7.49857 | 4.51596 | 40803 ft | 462 kts | 135° |
| 2026-04-23 18:27 | 7.45308 | 4.56158 | 40800 ft | 462 kts | 135° |
| 2026-04-23 18:27 | 7.40769 | 4.60713 | 40801 ft | 461 kts | 135° |
| 2026-04-23 18:28 | 7.36222 | 4.65275 | 40802 ft | 459 kts | 135° |
| 2026-04-23 18:28 | 7.31714 | 4.69820 | 40805 ft | 460 kts | 135° |
| 2026-04-23 18:29 | 7.27178 | 4.74387 | 40802 ft | 460 kts | 135° |
| 2026-04-23 18:29 | 7.22651 | 4.78931 | 40803 ft | 460 kts | 135° |
| 2026-04-23 18:30 | 7.18130 | 4.83463 | 40810 ft | 460 kts | 135° |
| 2026-04-23 18:30 | 7.13582 | 4.88019 | 40807 ft | 459 kts | 135° |
| 2026-04-23 18:31 | 7.09090 | 4.92517 | 40813 ft | 457 kts | 135° |
| 2026-04-23 18:31 | 7.04570 | 4.97038 | 40817 ft | 457 kts | 135° |
| 2026-04-23 18:32 | 7.00066 | 5.01544 | 40815 ft | 459 kts | 135° |
| 2026-04-23 18:32 | 6.95531 | 5.06078 | 40813 ft | 458 kts | 135° |
| 2026-04-23 18:33 | 6.91033 | 5.10575 | 40813 ft | 458 kts | 135° |
| 2026-04-23 18:33 | 6.86483 | 5.15105 | 40802 ft | 458 kts | 135° |
| 2026-04-23 18:34 | 6.81958 | 5.19599 | 40804 ft | 459 kts | 135° |
| 2026-04-23 18:34 | 6.77408 | 5.24133 | 40807 ft | 458 kts | 135° |
| 2026-04-23 18:35 | 6.72885 | 5.28646 | 40798 ft | 459 kts | 135° |
| 2026-04-23 18:35 | 6.68345 | 5.33176 | 40801 ft | 459 kts | 135° |
| 2026-04-23 18:36 | 6.63827 | 5.37686 | 40801 ft | 459 kts | 135° |
| 2026-04-23 18:36 | 6.59299 | 5.42202 | 40799 ft | 459 kts | 135° |
| 2026-04-23 18:37 | 6.54753 | 5.46739 | 40799 ft | 460 kts | 135° |
| 2026-04-23 18:37 | 6.50209 | 5.51272 | 40804 ft | 460 kts | 135° |
| 2026-04-23 18:38 | 6.45652 | 5.55814 | 40806 ft | 460 kts | 135° |
| 2026-04-23 18:38 | 6.41122 | 5.60330 | 40803 ft | 461 kts | 135° |
| 2026-04-23 18:39 | 6.36570 | 5.64863 | 40804 ft | 461 kts | 135° |
| 2026-04-23 18:39 | 6.32012 | 5.69429 | 40803 ft | 461 kts | 135° |
| 2026-04-23 18:40 | 6.27469 | 5.73979 | 40796 ft | 461 kts | 135° |
| 2026-04-23 18:40 | 6.22914 | 5.78523 | 40795 ft | 462 kts | 135° |
| 2026-04-23 18:41 | 6.18361 | 5.83058 | 40793 ft | 463 kts | 135° |
| 2026-04-23 18:41 | 6.13782 | 5.87617 | 40796 ft | 463 kts | 135° |
| 2026-04-23 18:42 | 6.09192 | 5.92185 | 40792 ft | 463 kts | 135° |
| 2026-04-23 18:42 | 6.04644 | 5.96708 | 40793 ft | 464 kts | 135° |
| 2026-04-23 18:43 | 6.00041 | 6.01286 | 40793 ft | 464 kts | 135° |
| 2026-04-23 18:43 | 5.95457 | 6.05843 | 40791 ft | 465 kts | 135° |
| 2026-04-23 18:44 | 5.90846 | 6.10426 | 40794 ft | 465 kts | 135° |
| 2026-04-23 18:44 | 5.86250 | 6.14972 | 40795 ft | 463 kts | 135° |
| 2026-04-23 18:45 | 5.81660 | 6.19508 | 40798 ft | 465 kts | 135° |
| 2026-04-23 18:45 | 5.77054 | 6.24072 | 40796 ft | 463 kts | 135° |
| 2026-04-23 18:46 | 5.72490 | 6.28597 | 40797 ft | 463 kts | 135° |
| 2026-04-23 18:46 | 5.67916 | 6.33139 | 40802 ft | 463 kts | 135° |
| 2026-04-23 18:47 | 5.63336 | 6.37685 | 40801 ft | 463 kts | 135° |
| 2026-04-23 18:47 | 5.58731 | 6.42253 | 40805 ft | 464 kts | 135° |
| 2026-04-23 18:48 | 5.54163 | 6.46786 | 40810 ft | 464 kts | 135° |
| 2026-04-23 18:48 | 5.49580 | 6.51330 | 40809 ft | 462 kts | 135° |
| 2026-04-23 18:49 | 5.44996 | 6.55875 | 40819 ft | 463 kts | 135° |
| 2026-04-23 18:49 | 5.40427 | 6.60406 | 40821 ft | 463 kts | 135° |
| 2026-04-23 18:50 | 5.36611 | 6.64188 | 40831 ft | 463 kts | 135° |
| 2026-04-23 18:50 | 5.31273 | 6.69503 | 40837 ft | 463 kts | 135° |
| 2026-04-23 18:51 | 5.26695 | 6.74062 | 40839 ft | 464 kts | 135° |
| 2026-04-23 18:51 | 5.22121 | 6.78601 | 40845 ft | 463 kts | 135° |
| 2026-04-23 18:52 | 5.17532 | 6.83148 | 40849 ft | 463 kts | 135° |
| 2026-04-23 18:52 | 5.12942 | 6.87693 | 40846 ft | 463 kts | 135° |
| 2026-04-23 18:53 | 5.08340 | 6.92248 | 40838 ft | 464 kts | 135° |
| 2026-04-23 18:53 | 5.03760 | 6.96781 | 40841 ft | 464 kts | 135° |
| 2026-04-23 18:54 | 4.99156 | 7.01336 | 40842 ft | 464 kts | 135° |
| 2026-04-23 18:54 | 4.94565 | 7.05877 | 40850 ft | 465 kts | 135° |
| 2026-04-23 18:55 | 4.89987 | 7.10405 | 40855 ft | 464 kts | 135° |
| 2026-04-23 18:55 | 4.85381 | 7.14933 | 40854 ft | 463 kts | 135° |
| 2026-04-23 18:56 | 4.81543 | 7.18706 | 40856 ft | 464 kts | 135° |
| 2026-04-23 18:56 | 4.76176 | 7.24000 | 40859 ft | 464 kts | 135° |
| 2026-04-23 18:57 | 4.71556 | 7.28564 | 40852 ft | 465 kts | 135° |
| 2026-04-23 18:57 | 4.66963 | 7.33102 | 40847 ft | 465 kts | 135° |
| 2026-04-23 18:58 | 4.62352 | 7.37656 | 40848 ft | 465 kts | 135° |
| 2026-04-23 18:58 | 4.57757 | 7.42195 | 40847 ft | 465 kts | 135° |
| 2026-04-23 18:59 | 4.53142 | 7.46753 | 40849 ft | 466 kts | 135° |
| 2026-04-23 18:59 | 4.48520 | 7.51317 | 40848 ft | 465 kts | 135° |
| 2026-04-23 19:00 | 4.43922 | 7.55856 | 40838 ft | 466 kts | 135° |
| 2026-04-23 19:00 | 4.39299 | 7.60419 | 40833 ft | 465 kts | 135° |
| 2026-04-23 19:01 | 4.34691 | 7.64966 | 40825 ft | 465 kts | 135° |
| 2026-04-23 19:01 | 4.30096 | 7.69526 | 40818 ft | 465 kts | 135° |
| 2026-04-23 19:02 | 4.26260 | 7.73325 | 40815 ft | 466 kts | 135° |
| 2026-04-23 19:02 | 4.20870 | 7.78642 | 40808 ft | 467 kts | 135° |
| 2026-04-23 19:03 | 4.16254 | 7.83193 | 40811 ft | 466 kts | 135° |
| 2026-04-23 19:03 | 4.11590 | 7.87710 | 40819 ft | 465 kts | 138° |
| 2026-04-23 19:04 | 4.06740 | 7.91989 | 40821 ft | 465 kts | 139° |
| 2026-04-23 19:04 | 4.01875 | 7.96248 | 40818 ft | 465 kts | 139° |
| 2026-04-23 19:05 | 3.96985 | 8.00526 | 40822 ft | 466 kts | 139° |
| 2026-04-23 19:05 | 3.92108 | 8.04792 | 40824 ft | 466 kts | 139° |
| 2026-04-23 19:06 | 3.87214 | 8.09063 | 40826 ft | 466 kts | 139° |
| 2026-04-23 19:06 | 3.82308 | 8.13330 | 40829 ft | 467 kts | 139° |
| 2026-04-23 19:07 | 3.77405 | 8.17607 | 40829 ft | 466 kts | 139° |
| 2026-04-23 19:07 | 3.72541 | 8.21858 | 40827 ft | 466 kts | 139° |
| 2026-04-23 19:08 | 3.67648 | 8.26135 | 40831 ft | 465 kts | 138° |
| 2026-04-23 19:08 | 3.62764 | 8.30406 | 40831 ft | 465 kts | 138° |
| 2026-04-23 19:09 | 3.57903 | 8.34655 | 40832 ft | 465 kts | 138° |
| 2026-04-23 19:09 | 3.53012 | 8.38930 | 40833 ft | 466 kts | 138° |
| 2026-04-23 19:10 | 3.48146 | 8.43183 | 40836 ft | 466 kts | 138° |
| 2026-04-23 19:10 | 3.43284 | 8.47431 | 40831 ft | 465 kts | 138° |
| 2026-04-23 19:11 | 3.38411 | 8.51691 | 40828 ft | 465 kts | 138° |
| 2026-04-23 19:11 | 3.33502 | 8.55979 | 40837 ft | 466 kts | 138° |
| 2026-04-23 19:12 | 3.29436 | 8.59532 | 40835 ft | 466 kts | 138° |
| 2026-04-23 19:12 | 3.23755 | 8.64492 | 40838 ft | 466 kts | 138° |
| 2026-04-23 19:13 | 3.18867 | 8.68782 | 40841 ft | 465 kts | 138° |
| 2026-04-23 19:13 | 3.14022 | 8.73038 | 40841 ft | 465 kts | 138° |
| 2026-04-23 19:14 | 3.09279 | 8.77189 | 40842 ft | 465 kts | 138° |
| 2026-04-23 19:14 | 3.04394 | 8.81458 | 40844 ft | 465 kts | 138° |
| 2026-04-23 19:15 | 2.99518 | 8.85715 | 40843 ft | 465 kts | 138° |
| 2026-04-23 19:15 | 2.94670 | 8.89945 | 40846 ft | 465 kts | 138° |
| 2026-04-23 19:16 | 2.89784 | 8.94207 | 40844 ft | 465 kts | 138° |
| 2026-04-23 19:16 | 2.84906 | 8.98439 | 40843 ft | 465 kts | 138° |
| 2026-04-23 19:17 | 2.77581 | 9.04808 | 40844 ft | 464 kts | 138° |
| 2026-04-23 19:17 | 2.72708 | 9.09054 | 40847 ft | 466 kts | 138° |
| 2026-04-23 19:18 | 2.67809 | 9.13326 | 40843 ft | 465 kts | 138° |
| 2026-04-23 19:18 | 2.62950 | 9.17564 | 40845 ft | 466 kts | 138° |
| 2026-04-23 19:19 | 2.55608 | 9.23965 | 40846 ft | 465 kts | 138° |
| 2026-04-23 19:20 | 2.48278 | 9.30356 | 40842 ft | 466 kts | 137° |
| 2026-04-23 19:20 | 2.43404 | 9.34605 | 40842 ft | 466 kts | 138° |
| 2026-04-23 19:21 | 2.36059 | 9.41008 | 40844 ft | 467 kts | 137° |
| 2026-04-23 19:22 | 2.31177 | 9.45263 | 40845 ft | 467 kts | 138° |
| 2026-04-23 19:22 | 2.23804 | 9.51688 | 40844 ft | 467 kts | 137° |
| 2026-04-23 19:23 | 2.18903 | 9.55959 | 40846 ft | 468 kts | 137° |
| 2026-04-23 19:24 | 2.11542 | 9.62373 | 40847 ft | 467 kts | 138° |
| 2026-04-23 19:24 | 2.04190 | 9.68799 | 40850 ft | 468 kts | 137° |
| 2026-04-23 19:25 | 1.94242 | 9.77221 | 40859 ft | 470 kts | 142° |
| 2026-04-23 19:26 | 1.85960 | 9.82428 | 40881 ft | 471 kts | 151° |
| 2026-04-23 19:27 | 1.70830 | 9.88942 | 40907 ft | 473 kts | 156° |
| 2026-04-23 19:28 | 1.58651 | 9.93951 | 40926 ft | 473 kts | 156° |
| 2026-04-23 19:29 | 1.49485 | 9.97725 | 40952 ft | 473 kts | 156° |
| 2026-04-23 19:30 | 1.40350 | 10.01490 | 40951 ft | 473 kts | 156° |
| 2026-04-23 19:31 | 1.31178 | 10.05269 | 40940 ft | 473 kts | 156° |
| 2026-04-23 19:31 | 1.25083 | 10.07780 | 40933 ft | 473 kts | 156° |
| 2026-04-23 19:32 | 1.18972 | 10.10295 | 40929 ft | 473 kts | 156° |
| 2026-04-23 19:32 | 1.12891 | 10.12800 | 40933 ft | 474 kts | 156° |
| 2026-04-23 19:33 | 1.06787 | 10.15315 | 40924 ft | 474 kts | 156° |
| 2026-04-23 19:33 | 0.97618 | 10.19093 | 40921 ft | 475 kts | 156° |
| 2026-04-23 19:34 | 0.91472 | 10.21623 | 40915 ft | 475 kts | 156° |
| 2026-04-23 19:35 | 0.82312 | 10.25379 | 40914 ft | 474 kts | 156° |
| 2026-04-23 19:35 | 0.76172 | 10.27900 | 40911 ft | 475 kts | 156° |
| 2026-04-23 19:36 | 0.70080 | 10.30406 | 40913 ft | 474 kts | 156° |
| 2026-04-23 19:36 | 0.63938 | 10.32934 | 40917 ft | 474 kts | 156° |
| 2026-04-23 19:37 | 0.57850 | 10.35440 | 40919 ft | 474 kts | 156° |
| 2026-04-23 19:37 | 0.51743 | 10.37956 | 40924 ft | 475 kts | 156° |
| 2026-04-23 19:38 | 0.45606 | 10.40483 | 40920 ft | 475 kts | 156° |
| 2026-04-23 19:38 | 0.39484 | 10.43003 | 40912 ft | 474 kts | 156° |
| 2026-04-23 19:39 | 0.33369 | 10.45521 | 40906 ft | 474 kts | 156° |
| 2026-04-23 19:39 | 0.27280 | 10.48028 | 40898 ft | 475 kts | 156° |
| 2026-04-23 19:40 | 0.21139 | 10.50557 | 40894 ft | 475 kts | 156° |
| 2026-04-23 19:40 | 0.15016 | 10.53078 | 40894 ft | 476 kts | 156° |
| 2026-04-23 19:41 | 0.08858 | 10.55614 | 40889 ft | 476 kts | 156° |
| 2026-04-23 19:41 | 0.02753 | 10.58127 | 40885 ft | 476 kts | 156° |
| 2026-04-23 19:42 | -0.03373 | 10.60649 | 40884 ft | 475 kts | 156° |
| 2026-04-23 19:42 | -0.09497 | 10.63170 | 40879 ft | 476 kts | 156° |
| 2026-04-23 19:43 | -0.15644 | 10.65692 | 40875 ft | 476 kts | 156° |
| 2026-04-23 19:43 | -0.21766 | 10.68235 | 40874 ft | 477 kts | 156° |
| 2026-04-23 19:44 | -0.27913 | 10.70779 | 40876 ft | 478 kts | 156° |
| 2026-04-23 19:44 | -0.34101 | 10.73330 | 40877 ft | 479 kts | 156° |
| 2026-04-23 19:45 | -0.40271 | 10.75869 | 40883 ft | 480 kts | 156° |
| 2026-04-23 19:45 | -0.46440 | 10.78409 | 40885 ft | 480 kts | 156° |
| 2026-04-23 19:46 | -0.52656 | 10.80966 | 40887 ft | 482 kts | 155° |
| 2026-04-23 19:46 | -0.58865 | 10.83519 | 40887 ft | 483 kts | 156° |
| 2026-04-23 19:47 | -0.64034 | 10.85718 | 40885 ft | 484 kts | 152° |
| 2026-04-23 19:47 | -0.70803 | 10.89700 | 40884 ft | 483 kts | 142° |
| 2026-04-23 19:48 | -0.75914 | 10.93976 | 40884 ft | 481 kts | 133° |
| 2026-04-23 19:48 | -0.80355 | 10.98964 | 40891 ft | 479 kts | 127° |
| 2026-04-23 19:49 | -0.84535 | 11.04164 | 40890 ft | 481 kts | 127° |
| 2026-04-23 19:49 | -0.88717 | 11.09371 | 40908 ft | 482 kts | 127° |
| 2026-04-23 19:50 | -0.92937 | 11.14601 | 40916 ft | 482 kts | 127° |
| 2026-04-23 19:50 | -0.97138 | 11.19801 | 40905 ft | 482 kts | 127° |
| 2026-04-23 19:51 | -1.01343 | 11.25006 | 40907 ft | 482 kts | 127° |
| 2026-04-23 19:51 | -1.05548 | 11.30210 | 40915 ft | 482 kts | 127° |
| 2026-04-23 19:52 | -1.09063 | 11.34559 | 40925 ft | 482 kts | 127° |
| 2026-04-23 19:52 | -1.13988 | 11.40622 | 40935 ft | 481 kts | 127° |
| 2026-04-23 19:53 | -1.18189 | 11.45795 | 40937 ft | 481 kts | 127° |
| 2026-04-23 19:53 | -1.22403 | 11.51003 | 40941 ft | 480 kts | 127° |
| 2026-04-23 19:54 | -1.26591 | 11.56187 | 40942 ft | 480 kts | 126° |
| 2026-04-23 19:54 | -1.30773 | 11.61366 | 40952 ft | 480 kts | 127° |
| 2026-04-23 19:55 | -1.34951 | 11.66546 | 40956 ft | 479 kts | 127° |
| 2026-04-23 19:55 | -1.39120 | 11.71737 | 40960 ft | 479 kts | 127° |
| 2026-04-23 19:56 | -1.43321 | 11.76945 | 40972 ft | 479 kts | 127° |
| 2026-04-23 19:56 | -1.47487 | 11.82104 | 40976 ft | 478 kts | 127° |
| 2026-04-23 19:57 | -1.51659 | 11.87271 | 40984 ft | 478 kts | 127° |
| 2026-04-23 19:57 | -1.55149 | 11.91594 | 40988 ft | 477 kts | 127° |
| 2026-04-23 19:58 | -1.59998 | 11.97599 | 40995 ft | 477 kts | 127° |
| 2026-04-23 19:58 | -1.64159 | 12.02749 | 41000 ft | 476 kts | 127° |
| 2026-04-23 19:59 | -1.68323 | 12.07908 | 40997 ft | 476 kts | 127° |
| 2026-04-23 19:59 | -1.72464 | 12.13039 | 40996 ft | 477 kts | 127° |
| 2026-04-23 20:00 | -1.76652 | 12.18232 | 40995 ft | 477 kts | 127° |
| 2026-04-23 20:00 | -1.80787 | 12.23357 | 40989 ft | 478 kts | 127° |
| 2026-04-23 20:01 | -1.84981 | 12.28553 | 40989 ft | 478 kts | 127° |
| 2026-04-23 20:01 | -1.89131 | 12.33697 | 40994 ft | 477 kts | 127° |
| 2026-04-23 20:02 | -1.93304 | 12.38866 | 40998 ft | 477 kts | 127° |
| 2026-04-23 20:02 | -1.97469 | 12.44031 | 41003 ft | 478 kts | 127° |
| 2026-04-23 20:03 | -2.01628 | 12.49191 | 41007 ft | 479 kts | 127° |
| 2026-04-23 20:03 | -2.05814 | 12.54382 | 40994 ft | 480 kts | 127° |
| 2026-04-23 20:04 | -2.10010 | 12.59583 | 40988 ft | 480 kts | 127° |
| 2026-04-23 20:04 | -2.14222 | 12.64773 | 40980 ft | 479 kts | 128° |
| 2026-04-23 20:05 | -2.17701 | 12.69077 | 40969 ft | 478 kts | 127° |
| 2026-04-23 20:05 | -2.22535 | 12.75085 | 40963 ft | 477 kts | 127° |
| 2026-04-23 20:06 | -2.26712 | 12.80272 | 40958 ft | 478 kts | 127° |
| 2026-04-23 20:06 | -2.30895 | 12.85464 | 40956 ft | 480 kts | 127° |
| 2026-04-23 20:07 | -2.35094 | 12.90675 | 40953 ft | 480 kts | 127° |
| 2026-04-23 20:07 | -2.39287 | 12.95879 | 40944 ft | 480 kts | 127° |
| 2026-04-23 20:08 | -2.43463 | 13.01058 | 40944 ft | 481 kts | 127° |
| 2026-04-23 20:08 | -2.47684 | 13.06286 | 40943 ft | 482 kts | 127° |
| 2026-04-23 20:09 | -2.51904 | 13.11463 | 40943 ft | 482 kts | 127° |
| 2026-04-23 20:09 | -2.56126 | 13.16644 | 40952 ft | 481 kts | 127° |
| 2026-04-23 20:10 | -2.59642 | 13.20961 | 40955 ft | 481 kts | 127° |
| 2026-04-23 20:10 | -2.64570 | 13.27014 | 40954 ft | 481 kts | 127° |
| 2026-04-23 20:11 | -2.68802 | 13.32211 | 40952 ft | 481 kts | 127° |
| 2026-04-23 20:11 | -2.73028 | 13.37402 | 40953 ft | 481 kts | 127° |
| 2026-04-23 20:12 | -2.77225 | 13.42558 | 40954 ft | 480 kts | 127° |
| 2026-04-23 20:12 | -2.81435 | 13.47732 | 40952 ft | 480 kts | 127° |
| 2026-04-23 20:12 | -2.83547 | 13.50326 | 40772 ft | 475 kts | 127° |
| 2026-04-23 20:13 | -2.85617 | 13.52869 | 40156 ft | 473 kts | 127° |
| 2026-04-23 20:13 | -2.87687 | 13.55412 | 39353 ft | 471 kts | 127° |
| 2026-04-23 20:13 | -2.89754 | 13.57952 | 38522 ft | 471 kts | 127° |
| 2026-04-23 20:13 | -2.91831 | 13.60505 | 37697 ft | 471 kts | 126° |
| 2026-04-23 20:14 | -2.93889 | 13.63038 | 36842 ft | 472 kts | 127° |
| 2026-04-23 20:14 | -2.95949 | 13.65573 | 35977 ft | 474 kts | 127° |
| 2026-04-23 20:14 | -2.98013 | 13.68125 | 35086 ft | 475 kts | 127° |
| 2026-04-23 20:14 | -3.00111 | 13.70721 | 34169 ft | 477 kts | 127° |
| 2026-04-23 20:15 | -3.02188 | 13.73287 | 33199 ft | 480 kts | 127° |
| 2026-04-23 20:15 | -3.04286 | 13.75875 | 32210 ft | 483 kts | 127° |
| 2026-04-23 20:15 | -3.06397 | 13.78478 | 31498 ft | 481 kts | 127° |
| 2026-04-23 20:15 | -3.08487 | 13.81048 | 31040 ft | 475 kts | 127° |
| 2026-04-23 20:16 | -3.10565 | 13.83604 | 30516 ft | 470 kts | 127° |
| 2026-04-23 20:16 | -3.12631 | 13.86129 | 29967 ft | 466 kts | 127° |
| 2026-04-23 20:16 | -3.14690 | 13.88640 | 29420 ft | 462 kts | 127° |
| 2026-04-23 20:16 | -3.16692 | 13.91089 | 28889 ft | 458 kts | 127° |
| 2026-04-23 20:17 | -3.18711 | 13.93560 | 28351 ft | 453 kts | 127° |
| 2026-04-23 20:17 | -3.20697 | 13.95999 | 27853 ft | 449 kts | 127° |
| 2026-04-23 20:17 | -3.22649 | 13.98400 | 27325 ft | 446 kts | 127° |
| 2026-04-23 20:17 | -3.24604 | 14.00803 | 26780 ft | 443 kts | 127° |
| 2026-04-23 20:18 | -3.26517 | 14.03159 | 26227 ft | 441 kts | 128° |
| 2026-04-23 20:18 | -3.28467 | 14.05558 | 25669 ft | 438 kts | 128° |
| 2026-04-23 20:18 | -3.30366 | 14.07897 | 25108 ft | 435 kts | 128° |
| 2026-04-23 20:18 | -3.32259 | 14.10227 | 24543 ft | 433 kts | 128° |
| 2026-04-23 20:19 | -3.34148 | 14.12552 | 23987 ft | 430 kts | 128° |
| 2026-04-23 20:19 | -3.36038 | 14.14879 | 23432 ft | 428 kts | 128° |
| 2026-04-23 20:19 | -3.37911 | 14.17185 | 22890 ft | 425 kts | 128° |
| 2026-04-23 20:19 | -3.39757 | 14.19459 | 22358 ft | 423 kts | 128° |
| 2026-04-23 20:20 | -3.41620 | 14.21753 | 21846 ft | 419 kts | 128° |
| 2026-04-23 20:20 | -3.43430 | 14.23980 | 21376 ft | 415 kts | 128° |
| 2026-04-23 20:20 | -3.45238 | 14.26206 | 20913 ft | 411 kts | 129° |
| 2026-04-23 20:20 | -3.47045 | 14.28432 | 20437 ft | 407 kts | 128° |
| 2026-04-23 20:21 | -3.48829 | 14.30628 | 19973 ft | 403 kts | 129° |
| 2026-04-23 20:21 | -3.50563 | 14.32764 | 19512 ft | 399 kts | 129° |
| 2026-04-23 20:21 | -3.52313 | 14.34920 | 19033 ft | 395 kts | 129° |
| 2026-04-23 20:21 | -3.54037 | 14.37044 | 18549 ft | 392 kts | 129° |
| 2026-04-23 20:22 | -3.55754 | 14.39158 | 18065 ft | 388 kts | 129° |
| 2026-04-23 20:22 | -3.57448 | 14.41245 | 17612 ft | 384 kts | 129° |
| 2026-04-23 20:22 | -3.59115 | 14.43299 | 17161 ft | 380 kts | 129° |
| 2026-04-23 20:22 | -3.60770 | 14.45337 | 16697 ft | 376 kts | 129° |
| 2026-04-23 20:23 | -3.62411 | 14.47358 | 16239 ft | 373 kts | 129° |
| 2026-04-23 20:23 | -3.64039 | 14.49364 | 15778 ft | 369 kts | 129° |
| 2026-04-23 20:23 | -3.65660 | 14.51361 | 15388 ft | 363 kts | 128° |
| 2026-04-23 20:23 | -3.67221 | 14.53285 | 15190 ft | 352 kts | 128° |
| 2026-04-23 20:24 | -3.68756 | 14.55178 | 14901 ft | 345 kts | 128° |
| 2026-04-23 20:24 | -3.70250 | 14.57020 | 14503 ft | 342 kts | 128° |
| 2026-04-23 20:24 | -3.71744 | 14.58861 | 14089 ft | 339 kts | 128° |
| 2026-04-23 20:24 | -3.73238 | 14.60703 | 13669 ft | 337 kts | 128° |
| 2026-04-23 20:25 | -3.74704 | 14.62509 | 13272 ft | 333 kts | 128° |
| 2026-04-23 20:25 | -3.76153 | 14.64297 | 12849 ft | 331 kts | 128° |
| 2026-04-23 20:25 | -3.77602 | 14.66086 | 12426 ft | 328 kts | 128° |
| 2026-04-23 20:25 | -3.79020 | 14.67847 | 12008 ft | 326 kts | 128° |
| 2026-04-23 20:26 | -3.80448 | 14.69622 | 11565 ft | 324 kts | 128° |
| 2026-04-23 20:26 | -3.81849 | 14.71358 | 11146 ft | 322 kts | 128° |
| 2026-04-23 20:26 | -3.83247 | 14.73085 | 10968 ft | 320 kts | 128° |
| 2026-04-23 20:26 | -3.84649 | 14.74819 | 10958 ft | 321 kts | 128° |
| 2026-04-23 20:27 | -3.86050 | 14.76549 | 10927 ft | 311 kts | 128° |
| 2026-04-23 20:27 | -3.87402 | 14.78216 | 10730 ft | 302 kts | 128° |
| 2026-04-23 20:27 | -3.88712 | 14.79830 | 10549 ft | 293 kts | 127° |
| 2026-04-23 20:27 | -3.89969 | 14.81382 | 10365 ft | 285 kts | 127° |
| 2026-04-23 20:28 | -3.91208 | 14.82912 | 10072 ft | 282 kts | 127° |
| 2026-04-23 20:28 | -3.92439 | 14.84432 | 9729 ft | 280 kts | 127° |
| 2026-04-23 20:28 | -3.93669 | 14.85949 | 9400 ft | 278 kts | 127° |
| 2026-04-23 20:28 | -3.94876 | 14.87439 | 9075 ft | 277 kts | 127° |
| 2026-04-23 20:29 | -3.96094 | 14.88944 | 8718 ft | 276 kts | 127° |
| 2026-04-23 20:29 | -3.97308 | 14.90441 | 8375 ft | 276 kts | 127° |
| 2026-04-23 20:29 | -3.98504 | 14.91919 | 8054 ft | 274 kts | 127° |
| 2026-04-23 20:29 | -3.99704 | 14.93399 | 7956 ft | 274 kts | 127° |
| 2026-04-23 20:30 | -4.00921 | 14.94902 | 7954 ft | 275 kts | 127° |
| 2026-04-23 20:30 | -4.03331 | 14.97876 | 7953 ft | 274 kts | 127° |
| 2026-04-23 20:30 | -4.04541 | 14.99369 | 7952 ft | 275 kts | 127° |
| 2026-04-23 20:31 | -4.05749 | 15.00859 | 7948 ft | 274 kts | 127° |
| 2026-04-23 20:31 | -4.06941 | 15.02332 | 7948 ft | 275 kts | 127° |
| 2026-04-23 20:31 | -4.08155 | 15.03829 | 7951 ft | 274 kts | 127° |
| 2026-04-23 20:31 | -4.09353 | 15.05310 | 7948 ft | 275 kts | 127° |
| 2026-04-23 20:32 | -4.10571 | 15.06813 | 7951 ft | 275 kts | 127° |
| 2026-04-23 20:32 | -4.11782 | 15.08290 | 7946 ft | 275 kts | 127° |
| 2026-04-23 20:32 | -4.12999 | 15.09779 | 7947 ft | 275 kts | 127° |
| 2026-04-23 20:32 | -4.14209 | 15.11266 | 7944 ft | 275 kts | 128° |
| 2026-04-23 20:33 | -4.15419 | 15.12754 | 7944 ft | 274 kts | 127° |
| 2026-04-23 20:33 | -4.16627 | 15.14243 | 7950 ft | 274 kts | 127° |
| 2026-04-23 20:33 | -4.17831 | 15.15730 | 7937 ft | 274 kts | 127° |
| 2026-04-23 20:33 | -4.19035 | 15.17217 | 7944 ft | 274 kts | 127° |
| 2026-04-23 20:34 | -4.20227 | 15.18689 | 7940 ft | 273 kts | 127° |
| 2026-04-23 20:34 | -4.21442 | 15.20189 | 7937 ft | 273 kts | 127° |
| 2026-04-23 20:34 | -4.22634 | 15.21661 | 7935 ft | 272 kts | 127° |
| 2026-04-23 20:34 | -4.23824 | 15.23133 | 7933 ft | 273 kts | 127° |
| 2026-04-23 20:35 | -4.24803 | 15.24751 | 7924 ft | 270 kts | 109° |
| 2026-04-23 20:35 | -4.25142 | 15.26586 | 7900 ft | 266 kts | 92° |
| 2026-04-23 20:35 | -4.25151 | 15.28416 | 7736 ft | 259 kts | 90° |
| 2026-04-23 20:35 | -4.25129 | 15.30207 | 7441 ft | 258 kts | 89° |
| 2026-04-23 20:36 | -4.25111 | 15.32008 | 7137 ft | 257 kts | 90° |
| 2026-04-23 20:36 | -4.25101 | 15.33778 | 6834 ft | 256 kts | 90° |
| 2026-04-23 20:36 | -4.25096 | 15.35559 | 6521 ft | 255 kts | 90° |
| 2026-04-23 20:36 | -4.25094 | 15.37329 | 6215 ft | 254 kts | 90° |
| 2026-04-23 20:37 | -4.25094 | 15.39095 | 5972 ft | 251 kts | 90° |
| 2026-04-23 20:37 | -4.25093 | 15.40862 | 5933 ft | 254 kts | 90° |
| 2026-04-23 20:37 | -4.25093 | 15.42634 | 5924 ft | 256 kts | 90° |
| 2026-04-23 20:37 | -4.25093 | 15.44399 | 5922 ft | 256 kts | 90° |
| 2026-04-23 20:38 | -4.25092 | 15.46202 | 5925 ft | 256 kts | 90° |
| 2026-04-23 20:38 | -4.25092 | 15.47977 | 5920 ft | 256 kts | 90° |
| 2026-04-23 20:38 | -4.25091 | 15.49754 | 5806 ft | 253 kts | 90° |
| 2026-04-23 20:38 | -4.25091 | 15.51525 | 5459 ft | 254 kts | 90° |
| 2026-04-23 20:39 | -4.25090 | 15.53252 | 5301 ft | 247 kts | 90° |
| 2026-04-23 20:39 | -4.25090 | 15.54969 | 5068 ft | 244 kts | 89° |
| 2026-04-23 20:39 | -4.25089 | 15.56671 | 4791 ft | 243 kts | 89° |
| 2026-04-23 20:39 | -4.25167 | 15.58363 | 4490 ft | 244 kts | 103° |
| 2026-04-23 20:40 | -4.26057 | 15.59792 | 4168 ft | 247 kts | 142° |
| 2026-04-23 20:40 | -4.27647 | 15.60346 | 3924 ft | 248 kts | 180° |
| 2026-04-23 20:40 | -4.29279 | 15.59833 | 3730 ft | 245 kts | 217° |
| 2026-04-23 20:40 | -4.30274 | 15.58523 | 3632 ft | 235 kts | 249° |
| 2026-04-23 20:41 | -4.30815 | 15.57030 | 3513 ft | 219 kts | 250° |
| 2026-04-23 20:41 | -4.31427 | 15.55680 | 3250 ft | 208 kts | 243° |
| 2026-04-23 20:41 | -4.32131 | 15.54451 | 2994 ft | 199 kts | 239° |
| 2026-04-23 20:41 | -4.32858 | 15.53308 | 2739 ft | 187 kts | 237° |
| 2026-04-23 20:42 | -4.33545 | 15.52256 | 2508 ft | 174 kts | 237° |
| 2026-04-23 20:42 | -4.34184 | 15.51270 | 2290 ft | 162 kts | 237° |
| 2026-04-23 20:42 | -4.34770 | 15.50359 | 2087 ft | 150 kts | 237° |
| 2026-04-23 20:42 | -4.35309 | 15.49516 | 1888 ft | 140 kts | 238° |
| 2026-04-23 20:43 | -4.35833 | 15.48695 | 1681 ft | 139 kts | 237° |
| 2026-04-23 20:43 | -4.36351 | 15.47874 | 1504 ft | 139 kts | 238° |
| 2026-04-23 20:43 | -4.36873 | 15.47063 | 1285 ft | 138 kts | 237° |
| 2026-04-23 20:43 | -4.37391 | 15.46268 | 1129 ft | 137 kts | 237° |
| 2026-04-23 20:44 | -4.37921 | 15.45451 | 1032 ft | 137 kts | 237° |
| 2026-04-23 20:44 | -4.38314 | 15.44838 | 1032 ft | 71 kts | 237° |
| 2026-04-23 20:44 | -4.38467 | 15.44598 | 1032 ft | 19 kts | 237° |
| 2026-04-23 20:44 | -4.38525 | 15.44509 | 1032 ft | 13 kts | 235° |
| 2026-04-23 20:45 | -4.38610 | 15.44483 | 1032 ft | 14 kts | 157° |
| 2026-04-23 20:45 | -4.38692 | 15.44532 | 1032 ft | 11 kts | 148° |
| 2026-04-23 20:45 | -4.38725 | 15.44533 | 1032 ft | 5 kts | 207° |
| 2026-04-23 20:45 | -4.38758 | 15.44498 | 1032 ft | 8 kts | 234° |
| 2026-04-23 20:46 | -4.38806 | 15.44475 | 1032 ft | 8 kts | 165° |
| 2026-04-23 20:46 | -4.38829 | 15.44487 | 1032 ft | 0 kts | 147° |